UAE146 EHAM-OMDB
Flight info
| Callsign | UAE146 |
|---|---|
| Flight time | 6h 56m |
| Altitude | 35000 |
| Route | ARNEM L620 HMM DCT NOMKA DCT TABAT DCT ARMUT DCT LAMSI DCT LIDSI DCT RADLY DCT PODET DCT KUSIB DCT IDASI DCT RETRA DCT PINDO DCT PAXIS Y707 OBRAN L321 REXUM M872 KULKI/N0487F370 M872 BDB Y214 RAPMA DCT KUVSO DCT KATIT DCT PEKEM M628 RIGIL G783 ELUDA/N0490F350 G783 ASPED Q308 KIPOK Q568 IMPED |
| Aircraft | B77W/H-SDE1E2E3FGHIJ2J3J4J5M1RWXY/LB1D1 |
Departure
| Time | 2026-05-04 20:28 |
|---|---|
| Airport | Amsterdam Airport Schiphol (EHAM) |
Arrival
| Time | 2026-05-05 03:24 |
|---|---|
| Airport | Dubai International Airport (OMDB) |
| Time | Latitude | Longitude | Altitude | Speed | Heading |
|---|---|---|---|---|---|
| 2026-05-04 19:49 | 52.31155 | 4.75595 | 4 ft | 0 kts | 87° |
| 2026-05-04 20:11 | 52.31155 | 4.75594 | 4 ft | 1 kts | 87° |
| 2026-05-04 20:11 | 52.31153 | 4.75555 | 5 ft | 4 kts | 81° |
| 2026-05-04 20:11 | 52.31147 | 4.75512 | 5 ft | 4 kts | 72° |
| 2026-05-04 20:12 | 52.31138 | 4.75471 | 6 ft | 4 kts | 62° |
| 2026-05-04 20:12 | 52.31130 | 4.75449 | 7 ft | 0 kts | 57° |
| 2026-05-04 20:12 | 52.31148 | 4.75463 | 6 ft | 4 kts | 14° |
| 2026-05-04 20:12 | 52.31175 | 4.75465 | 4 ft | 4 kts | 359° |
| 2026-05-04 20:13 | 52.31202 | 4.75463 | 4 ft | 4 kts | 356° |
| 2026-05-04 20:13 | 52.31229 | 4.75460 | 4 ft | 4 kts | 356° |
| 2026-05-04 20:13 | 52.31256 | 4.75457 | 4 ft | 4 kts | 356° |
| 2026-05-04 20:13 | 52.31283 | 4.75454 | 4 ft | 4 kts | 356° |
| 2026-05-04 20:14 | 52.31307 | 4.75452 | 4 ft | 1 kts | 357° |
| 2026-05-04 20:16 | 52.31308 | 4.75452 | 4 ft | 1 kts | 357° |
| 2026-05-04 20:16 | 52.31338 | 4.75449 | 4 ft | 9 kts | 357° |
| 2026-05-04 20:16 | 52.31431 | 4.75442 | 4 ft | 17 kts | 357° |
| 2026-05-04 20:17 | 52.31505 | 4.75318 | 2 ft | 16 kts | 266° |
| 2026-05-04 20:17 | 52.31504 | 4.75300 | 3 ft | 17 kts | 261° |
| 2026-05-04 20:17 | 52.31504 | 4.75248 | 3 ft | 9 kts | 266° |
| 2026-05-04 20:17 | 52.31499 | 4.75106 | 4 ft | 13 kts | 267° |
| 2026-05-04 20:18 | 52.31495 | 4.74955 | 4 ft | 13 kts | 267° |
| 2026-05-04 20:18 | 52.31491 | 4.74803 | 4 ft | 13 kts | 268° |
| 2026-05-04 20:18 | 52.31486 | 4.74651 | 4 ft | 14 kts | 266° |
| 2026-05-04 20:18 | 52.31479 | 4.74495 | 4 ft | 14 kts | 266° |
| 2026-05-04 20:19 | 52.31483 | 4.74342 | 4 ft | 14 kts | 298° |
| 2026-05-04 20:19 | 52.31572 | 4.74305 | 4 ft | 14 kts | 4° |
| 2026-05-04 20:19 | 52.31669 | 4.74311 | 4 ft | 14 kts | 2° |
| 2026-05-04 20:19 | 52.31767 | 4.74319 | 4 ft | 15 kts | 3° |
| 2026-05-04 20:20 | 52.31881 | 4.74328 | 4 ft | 17 kts | 2° |
| 2026-05-04 20:20 | 52.31998 | 4.74320 | 4 ft | 16 kts | 329° |
| 2026-05-04 20:20 | 52.32033 | 4.74150 | 4 ft | 16 kts | 275° |
| 2026-05-04 20:20 | 52.32039 | 4.73966 | 3 ft | 16 kts | 273° |
| 2026-05-04 20:21 | 52.32046 | 4.73784 | 4 ft | 16 kts | 274° |
| 2026-05-04 20:21 | 52.32053 | 4.73599 | 4 ft | 16 kts | 273° |
| 2026-05-04 20:21 | 52.32143 | 4.73281 | 4 ft | 16 kts | 318° |
| 2026-05-04 20:22 | 52.32228 | 4.73159 | 4 ft | 16 kts | 320° |
| 2026-05-04 20:22 | 52.32314 | 4.73040 | 4 ft | 16 kts | 319° |
| 2026-05-04 20:22 | 52.32404 | 4.72914 | 4 ft | 21 kts | 319° |
| 2026-05-04 20:22 | 52.32518 | 4.72753 | 4 ft | 22 kts | 319° |
| 2026-05-04 20:23 | 52.32632 | 4.72592 | 4 ft | 22 kts | 319° |
| 2026-05-04 20:23 | 52.32737 | 4.72414 | 4 ft | 22 kts | 311° |
| 2026-05-04 20:23 | 52.32837 | 4.72229 | 4 ft | 22 kts | 311° |
| 2026-05-04 20:23 | 52.32936 | 4.72043 | 4 ft | 22 kts | 311° |
| 2026-05-04 20:24 | 52.33033 | 4.71863 | 4 ft | 16 kts | 311° |
| 2026-05-04 20:24 | 52.33104 | 4.71735 | 4 ft | 15 kts | 312° |
| 2026-05-04 20:24 | 52.33146 | 4.71583 | 4 ft | 15 kts | 269° |
| 2026-05-04 20:24 | 52.33091 | 4.71443 | 4 ft | 15 kts | 222° |
| 2026-05-04 20:25 | 52.33013 | 4.71327 | 4 ft | 15 kts | 222° |
| 2026-05-04 20:25 | 52.32934 | 4.71214 | 4 ft | 15 kts | 220° |
| 2026-05-04 20:25 | 52.32867 | 4.71085 | 3 ft | 15 kts | 250° |
| 2026-05-04 20:25 | 52.32864 | 4.70983 | 3 ft | 5 kts | 271° |
| 2026-05-04 20:26 | 52.32865 | 4.70943 | 3 ft | 5 kts | 274° |
| 2026-05-04 20:26 | 52.32878 | 4.70900 | 3 ft | 5 kts | 324° |
| 2026-05-04 20:26 | 52.32914 | 4.70897 | 2 ft | 2 kts | 4° |
| 2026-05-04 20:26 | 52.32915 | 4.70897 | 2 ft | 0 kts | 4° |
| 2026-05-04 20:27 | 52.33001 | 4.70906 | 1 ft | 33 kts | 3° |
| 2026-05-04 20:27 | 52.33276 | 4.70932 | 1 ft | 83 kts | 3° |
| 2026-05-04 20:27 | 52.34082 | 4.71005 | 1 ft | 147 kts | 3° |
| 2026-05-04 20:27 | 52.35241 | 4.71128 | 212 ft | 177 kts | 6° |
| 2026-05-04 20:28 | 52.36507 | 4.71267 | 782 ft | 181 kts | 5° |
| 2026-05-04 20:28 | 52.37779 | 4.71406 | 1472 ft | 184 kts | 5° |
| 2026-05-04 20:28 | 52.39088 | 4.71517 | 1952 ft | 198 kts | 4° |
| 2026-05-04 20:28 | 52.40542 | 4.71639 | 2188 ft | 222 kts | 4° |
| 2026-05-04 20:29 | 52.42152 | 4.71775 | 2543 ft | 242 kts | 4° |
| 2026-05-04 20:29 | 52.43888 | 4.71928 | 3086 ft | 254 kts | 3° |
| 2026-05-04 20:29 | 52.45659 | 4.72085 | 3797 ft | 260 kts | 2° |
| 2026-05-04 20:29 | 52.47480 | 4.72248 | 4565 ft | 264 kts | 2° |
| 2026-05-04 20:30 | 52.49340 | 4.72416 | 5328 ft | 268 kts | 1° |
| 2026-05-04 20:30 | 52.51189 | 4.72777 | 5998 ft | 272 kts | 17° |
| 2026-05-04 20:30 | 52.52808 | 4.74407 | 6639 ft | 280 kts | 45° |
| 2026-05-04 20:30 | 52.53910 | 4.77035 | 7297 ft | 285 kts | 65° |
| 2026-05-04 20:31 | 52.54320 | 4.80177 | 7919 ft | 285 kts | 92° |
| 2026-05-04 20:31 | 52.54129 | 4.83407 | 8546 ft | 286 kts | 105° |
| 2026-05-04 20:31 | 52.53191 | 4.86265 | 9072 ft | 288 kts | 137° |
| 2026-05-04 20:31 | 52.51610 | 4.88240 | 9680 ft | 288 kts | 147° |
| 2026-05-04 20:32 | 52.49949 | 4.90152 | 10235 ft | 296 kts | 147° |
| 2026-05-04 20:32 | 52.48208 | 4.92169 | 10471 ft | 318 kts | 147° |
| 2026-05-04 20:32 | 52.46328 | 4.94341 | 10657 ft | 342 kts | 147° |
| 2026-05-04 20:32 | 52.44320 | 4.96663 | 10849 ft | 365 kts | 146° |
| 2026-05-04 20:33 | 52.42211 | 4.99108 | 11361 ft | 378 kts | 146° |
| 2026-05-04 20:33 | 52.40065 | 5.01597 | 12111 ft | 384 kts | 145° |
| 2026-05-04 20:33 | 52.37869 | 5.04141 | 13003 ft | 389 kts | 146° |
| 2026-05-04 20:33 | 52.35647 | 5.06709 | 13887 ft | 394 kts | 145° |
| 2026-05-04 20:34 | 52.33585 | 5.09649 | 14494 ft | 398 kts | 128° |
| 2026-05-04 20:34 | 52.32297 | 5.13680 | 15124 ft | 403 kts | 109° |
| 2026-05-04 20:34 | 52.31393 | 5.18046 | 15760 ft | 410 kts | 110° |
| 2026-05-04 20:34 | 52.30383 | 5.22434 | 16508 ft | 415 kts | 111° |
| 2026-05-04 20:35 | 52.29318 | 5.26858 | 17312 ft | 419 kts | 112° |
| 2026-05-04 20:35 | 52.28237 | 5.31298 | 18153 ft | 423 kts | 112° |
| 2026-05-04 20:35 | 52.27147 | 5.35783 | 18847 ft | 428 kts | 112° |
| 2026-05-04 20:35 | 52.26048 | 5.40318 | 19508 ft | 433 kts | 112° |
| 2026-05-04 20:36 | 52.24951 | 5.44859 | 20153 ft | 437 kts | 112° |
| 2026-05-04 20:36 | 52.23834 | 5.49485 | 20930 ft | 438 kts | 112° |
| 2026-05-04 20:36 | 52.22716 | 5.54116 | 21724 ft | 439 kts | 112° |
| 2026-05-04 20:36 | 52.21591 | 5.58763 | 22410 ft | 443 kts | 113° |
| 2026-05-04 20:37 | 52.20454 | 5.63450 | 23043 ft | 447 kts | 113° |
| 2026-05-04 20:37 | 52.19302 | 5.68183 | 23685 ft | 450 kts | 113° |
| 2026-05-04 20:37 | 52.18142 | 5.72947 | 24228 ft | 454 kts | 113° |
| 2026-05-04 20:37 | 52.16973 | 5.77734 | 24784 ft | 456 kts | 113° |
| 2026-05-04 20:38 | 52.15795 | 5.82546 | 25312 ft | 459 kts | 113° |
| 2026-05-04 20:38 | 52.14608 | 5.87387 | 25830 ft | 462 kts | 114° |
| 2026-05-04 20:38 | 52.13409 | 5.92267 | 26296 ft | 465 kts | 114° |
| 2026-05-04 20:38 | 52.12201 | 5.97175 | 26819 ft | 468 kts | 114° |
| 2026-05-04 20:39 | 52.10985 | 6.02099 | 27258 ft | 472 kts | 115° |
| 2026-05-04 20:39 | 52.09760 | 6.07082 | 27659 ft | 476 kts | 113° |
| 2026-05-04 20:39 | 52.08834 | 6.12278 | 28003 ft | 484 kts | 104° |
| 2026-05-04 20:39 | 52.08296 | 6.17711 | 28371 ft | 489 kts | 101° |
| 2026-05-04 20:40 | 52.07836 | 6.23212 | 28759 ft | 492 kts | 100° |
| 2026-05-04 20:40 | 52.07364 | 6.28732 | 29131 ft | 495 kts | 101° |
| 2026-05-04 20:40 | 52.06848 | 6.34285 | 29480 ft | 498 kts | 102° |
| 2026-05-04 20:40 | 52.06294 | 6.39843 | 29848 ft | 499 kts | 103° |
| 2026-05-04 20:41 | 52.05703 | 6.45502 | 30116 ft | 503 kts | 104° |
| 2026-05-04 20:41 | 52.05114 | 6.51035 | 30507 ft | 503 kts | 104° |
| 2026-05-04 20:41 | 52.04517 | 6.56618 | 30977 ft | 501 kts | 104° |
| 2026-05-04 20:41 | 52.03924 | 6.62172 | 31454 ft | 499 kts | 104° |
| 2026-05-04 20:42 | 52.03332 | 6.67723 | 31873 ft | 498 kts | 104° |
| 2026-05-04 20:42 | 52.02738 | 6.73267 | 32259 ft | 498 kts | 104° |
| 2026-05-04 20:42 | 52.02076 | 6.78767 | 32651 ft | 495 kts | 108° |
| 2026-05-04 20:42 | 52.01219 | 6.84169 | 33015 ft | 493 kts | 110° |
| 2026-05-04 20:43 | 52.00335 | 6.89549 | 33324 ft | 494 kts | 110° |
| 2026-05-04 20:43 | 51.99451 | 6.94952 | 33563 ft | 496 kts | 110° |
| 2026-05-04 20:43 | 51.98580 | 7.00367 | 33934 ft | 496 kts | 110° |
| 2026-05-04 20:43 | 51.97716 | 7.05770 | 34301 ft | 494 kts | 110° |
| 2026-05-04 20:44 | 51.96847 | 7.11149 | 34606 ft | 493 kts | 110° |
| 2026-05-04 20:44 | 51.95918 | 7.16504 | 34855 ft | 493 kts | 111° |
| 2026-05-04 20:44 | 51.93909 | 7.27206 | 34951 ft | 497 kts | 112° |
| 2026-05-04 20:45 | 51.91891 | 7.37870 | 34940 ft | 493 kts | 112° |
| 2026-05-04 20:45 | 51.89904 | 7.48476 | 34962 ft | 492 kts | 111° |
| 2026-05-04 20:46 | 51.87914 | 7.59081 | 34967 ft | 493 kts | 112° |
| 2026-05-04 20:46 | 51.85912 | 7.69695 | 34966 ft | 494 kts | 111° |
| 2026-05-04 20:47 | 51.84325 | 7.80553 | 34956 ft | 497 kts | 107° |
| 2026-05-04 20:47 | 51.82886 | 7.91516 | 34966 ft | 499 kts | 107° |
| 2026-05-04 20:48 | 51.81422 | 8.02489 | 34974 ft | 500 kts | 107° |
| 2026-05-04 20:48 | 51.79928 | 8.13462 | 34969 ft | 501 kts | 107° |
| 2026-05-04 20:49 | 51.78414 | 8.24443 | 34968 ft | 501 kts | 107° |
| 2026-05-04 20:49 | 51.76889 | 8.35416 | 34964 ft | 501 kts | 107° |
| 2026-05-04 20:50 | 51.75356 | 8.46381 | 34989 ft | 501 kts | 107° |
| 2026-05-04 20:50 | 51.73810 | 8.57361 | 34992 ft | 502 kts | 107° |
| 2026-05-04 20:51 | 51.72254 | 8.68327 | 34984 ft | 501 kts | 107° |
| 2026-05-04 20:51 | 51.70700 | 8.79203 | 34975 ft | 501 kts | 107° |
| 2026-05-04 20:52 | 51.69128 | 8.90128 | 34992 ft | 501 kts | 107° |
| 2026-05-04 20:52 | 51.67544 | 9.01059 | 34988 ft | 501 kts | 107° |
| 2026-05-04 20:53 | 51.65951 | 9.11970 | 34983 ft | 501 kts | 107° |
| 2026-05-04 20:53 | 51.64347 | 9.22883 | 34978 ft | 501 kts | 107° |
| 2026-05-04 20:54 | 51.62734 | 9.33781 | 34978 ft | 501 kts | 107° |
| 2026-05-04 20:54 | 51.61110 | 9.44675 | 34990 ft | 500 kts | 108° |
| 2026-05-04 20:55 | 51.59478 | 9.55552 | 34987 ft | 500 kts | 108° |
| 2026-05-04 20:55 | 51.57837 | 9.66412 | 34986 ft | 500 kts | 108° |
| 2026-05-04 20:56 | 51.56186 | 9.77260 | 34976 ft | 499 kts | 108° |
| 2026-05-04 20:56 | 51.54526 | 9.88098 | 34976 ft | 499 kts | 108° |
| 2026-05-04 20:57 | 51.52858 | 9.98916 | 34974 ft | 499 kts | 108° |
| 2026-05-04 20:57 | 51.51178 | 10.09738 | 34964 ft | 499 kts | 108° |
| 2026-05-04 20:58 | 51.49490 | 10.20537 | 34966 ft | 499 kts | 108° |
| 2026-05-04 20:58 | 51.47796 | 10.31321 | 34968 ft | 498 kts | 108° |
| 2026-05-04 20:59 | 51.46086 | 10.42069 | 34963 ft | 494 kts | 110° |
| 2026-05-04 20:59 | 51.44819 | 10.47132 | 34972 ft | 485 kts | 124° |
| 2026-05-04 20:59 | 51.42938 | 10.51576 | 34969 ft | 479 kts | 135° |
| 2026-05-04 21:00 | 51.40637 | 10.55358 | 34967 ft | 472 kts | 146° |
| 2026-05-04 21:00 | 51.38050 | 10.58409 | 34958 ft | 467 kts | 149° |
| 2026-05-04 21:00 | 51.32709 | 10.64515 | 34966 ft | 471 kts | 149° |
| 2026-05-04 21:01 | 51.27432 | 10.70638 | 34970 ft | 473 kts | 148° |
| 2026-05-04 21:01 | 51.22108 | 10.76866 | 34970 ft | 475 kts | 148° |
| 2026-05-04 21:02 | 51.16781 | 10.83099 | 34982 ft | 475 kts | 148° |
| 2026-05-04 21:02 | 51.11457 | 10.89308 | 34981 ft | 474 kts | 148° |
| 2026-05-04 21:03 | 51.06137 | 10.95490 | 34974 ft | 473 kts | 148° |
| 2026-05-04 21:03 | 51.00841 | 11.01624 | 34986 ft | 470 kts | 148° |
| 2026-05-04 21:04 | 50.95555 | 11.07730 | 34991 ft | 469 kts | 148° |
| 2026-05-04 21:04 | 50.90283 | 11.13801 | 34988 ft | 468 kts | 148° |
| 2026-05-04 21:05 | 50.85018 | 11.19847 | 34978 ft | 468 kts | 148° |
| 2026-05-04 21:05 | 50.79742 | 11.25889 | 34961 ft | 468 kts | 148° |
| 2026-05-04 21:06 | 50.74467 | 11.31913 | 34946 ft | 469 kts | 148° |
| 2026-05-04 21:06 | 50.69174 | 11.37938 | 34958 ft | 470 kts | 148° |
| 2026-05-04 21:07 | 50.63866 | 11.43969 | 34963 ft | 471 kts | 148° |
| 2026-05-04 21:07 | 50.58531 | 11.50012 | 34959 ft | 473 kts | 148° |
| 2026-05-04 21:08 | 50.53102 | 11.55801 | 34968 ft | 470 kts | 152° |
| 2026-05-04 21:08 | 50.47514 | 11.61152 | 34975 ft | 471 kts | 153° |
| 2026-05-04 21:09 | 50.41924 | 11.66488 | 34973 ft | 470 kts | 152° |
| 2026-05-04 21:09 | 50.36343 | 11.71834 | 34997 ft | 470 kts | 152° |
| 2026-05-04 21:10 | 50.30771 | 11.77171 | 35001 ft | 470 kts | 152° |
| 2026-05-04 21:10 | 50.25199 | 11.82495 | 34989 ft | 469 kts | 152° |
| 2026-05-04 21:11 | 50.20571 | 11.86905 | 34995 ft | 468 kts | 152° |
| 2026-05-04 21:11 | 50.15013 | 11.92187 | 34984 ft | 468 kts | 152° |
| 2026-05-04 21:12 | 50.09458 | 11.97449 | 34958 ft | 467 kts | 152° |
| 2026-05-04 21:12 | 50.03909 | 12.02693 | 34962 ft | 466 kts | 152° |
| 2026-05-04 21:13 | 49.98365 | 12.07917 | 34952 ft | 466 kts | 152° |
| 2026-05-04 21:13 | 49.92818 | 12.13132 | 34947 ft | 466 kts | 152° |
| 2026-05-04 21:14 | 49.87277 | 12.18327 | 34969 ft | 466 kts | 152° |
| 2026-05-04 21:14 | 49.81726 | 12.23516 | 34949 ft | 466 kts | 152° |
| 2026-05-04 21:15 | 49.76170 | 12.28698 | 34926 ft | 466 kts | 152° |
| 2026-05-04 21:15 | 49.70694 | 12.34094 | 34934 ft | 469 kts | 145° |
| 2026-05-04 21:16 | 49.65590 | 12.40305 | 34946 ft | 471 kts | 144° |
| 2026-05-04 21:16 | 49.60451 | 12.46569 | 34952 ft | 472 kts | 145° |
| 2026-05-04 21:17 | 49.55281 | 12.52809 | 34942 ft | 472 kts | 145° |
| 2026-05-04 21:17 | 49.50102 | 12.59017 | 34939 ft | 472 kts | 145° |
| 2026-05-04 21:18 | 49.44915 | 12.65215 | 34934 ft | 472 kts | 145° |
| 2026-05-04 21:18 | 49.39731 | 12.71392 | 34939 ft | 472 kts | 145° |
| 2026-05-04 21:19 | 49.34544 | 12.77558 | 34947 ft | 472 kts | 145° |
| 2026-05-04 21:19 | 49.29350 | 12.83716 | 34937 ft | 472 kts | 145° |
| 2026-05-04 21:20 | 49.24153 | 12.89860 | 34939 ft | 471 kts | 145° |
| 2026-05-04 21:20 | 49.18963 | 12.95978 | 34932 ft | 471 kts | 145° |
| 2026-05-04 21:21 | 49.13772 | 13.02082 | 34946 ft | 470 kts | 145° |
| 2026-05-04 21:21 | 49.08583 | 13.08167 | 34944 ft | 470 kts | 145° |
| 2026-05-04 21:22 | 49.03389 | 13.14242 | 34936 ft | 470 kts | 146° |
| 2026-05-04 21:22 | 48.98195 | 13.20300 | 34929 ft | 470 kts | 145° |
| 2026-05-04 21:23 | 48.93004 | 13.26337 | 34925 ft | 470 kts | 146° |
| 2026-05-04 21:23 | 48.87810 | 13.32365 | 34936 ft | 470 kts | 146° |
| 2026-05-04 21:24 | 48.82601 | 13.38391 | 34928 ft | 470 kts | 146° |
| 2026-05-04 21:24 | 48.77393 | 13.44402 | 34930 ft | 471 kts | 146° |
| 2026-05-04 21:25 | 48.72170 | 13.50415 | 34913 ft | 471 kts | 146° |
| 2026-05-04 21:25 | 48.66940 | 13.56402 | 34923 ft | 471 kts | 147° |
| 2026-05-04 21:26 | 48.61327 | 13.61371 | 34916 ft | 466 kts | 157° |
| 2026-05-04 21:26 | 48.55506 | 13.65539 | 34924 ft | 467 kts | 157° |
| 2026-05-04 21:27 | 48.49647 | 13.69787 | 34914 ft | 467 kts | 157° |
| 2026-05-04 21:27 | 48.43798 | 13.74061 | 34914 ft | 468 kts | 157° |
| 2026-05-04 21:28 | 48.37945 | 13.78335 | 34914 ft | 468 kts | 157° |
| 2026-05-04 21:28 | 48.32037 | 13.82636 | 34905 ft | 469 kts | 157° |
| 2026-05-04 21:29 | 48.26205 | 13.86870 | 34899 ft | 469 kts | 157° |
| 2026-05-04 21:29 | 48.20374 | 13.91278 | 34905 ft | 470 kts | 153° |
| 2026-05-04 21:30 | 48.14701 | 13.96175 | 34905 ft | 471 kts | 153° |
| 2026-05-04 21:30 | 48.09022 | 14.01086 | 34908 ft | 471 kts | 153° |
| 2026-05-04 21:31 | 48.00483 | 14.08407 | 34913 ft | 472 kts | 153° |
| 2026-05-04 21:32 | 47.94783 | 14.13265 | 34911 ft | 472 kts | 153° |
| 2026-05-04 21:32 | 47.89074 | 14.18118 | 34940 ft | 473 kts | 153° |
| 2026-05-04 21:33 | 47.83360 | 14.22963 | 34933 ft | 473 kts | 153° |
| 2026-05-04 21:33 | 47.77641 | 14.27804 | 34952 ft | 474 kts | 153° |
| 2026-05-04 21:34 | 47.71905 | 14.32642 | 34962 ft | 474 kts | 153° |
| 2026-05-04 21:34 | 47.66168 | 14.37470 | 34966 ft | 474 kts | 153° |
| 2026-05-04 21:35 | 47.60428 | 14.42289 | 34952 ft | 474 kts | 153° |
| 2026-05-04 21:35 | 47.54691 | 14.47092 | 34990 ft | 474 kts | 153° |
| 2026-05-04 21:36 | 47.48941 | 14.51895 | 34998 ft | 475 kts | 153° |
| 2026-05-04 21:36 | 47.43184 | 14.56692 | 35019 ft | 475 kts | 153° |
| 2026-05-04 21:37 | 47.37423 | 14.61480 | 35028 ft | 476 kts | 153° |
| 2026-05-04 21:37 | 47.31646 | 14.66267 | 35013 ft | 476 kts | 153° |
| 2026-05-04 21:38 | 47.25867 | 14.71046 | 35009 ft | 477 kts | 153° |
| 2026-05-04 21:38 | 47.20081 | 14.75818 | 35021 ft | 477 kts | 153° |
| 2026-05-04 21:39 | 47.14291 | 14.80582 | 35024 ft | 477 kts | 153° |
| 2026-05-04 21:39 | 47.08493 | 14.85339 | 35032 ft | 477 kts | 153° |
| 2026-05-04 21:40 | 47.02689 | 14.90090 | 35028 ft | 478 kts | 153° |
| 2026-05-04 21:40 | 46.96922 | 14.94800 | 35023 ft | 478 kts | 154° |
| 2026-05-04 21:41 | 46.91110 | 14.99532 | 35026 ft | 479 kts | 154° |
| 2026-05-04 21:41 | 46.85285 | 15.04264 | 35014 ft | 479 kts | 154° |
| 2026-05-04 21:42 | 46.79452 | 15.08992 | 35014 ft | 479 kts | 153° |
| 2026-05-04 21:42 | 46.73624 | 15.13705 | 35018 ft | 479 kts | 153° |
| 2026-05-04 21:43 | 46.67790 | 15.18410 | 35022 ft | 480 kts | 153° |
| 2026-05-04 21:43 | 46.61975 | 15.23167 | 35017 ft | 480 kts | 151° |
| 2026-05-04 21:44 | 46.56278 | 15.28237 | 35016 ft | 480 kts | 150° |
| 2026-05-04 21:44 | 46.50599 | 15.33343 | 35023 ft | 480 kts | 150° |
| 2026-05-04 21:45 | 46.44893 | 15.38397 | 35026 ft | 481 kts | 150° |
| 2026-05-04 21:45 | 46.39168 | 15.43425 | 35033 ft | 481 kts | 150° |
| 2026-05-04 21:46 | 46.33436 | 15.48445 | 35024 ft | 482 kts | 150° |
| 2026-05-04 21:46 | 46.27735 | 15.53430 | 35031 ft | 482 kts | 151° |
| 2026-05-04 21:47 | 46.21957 | 15.58471 | 35044 ft | 482 kts | 151° |
| 2026-05-04 21:47 | 46.16200 | 15.63476 | 35046 ft | 483 kts | 151° |
| 2026-05-04 21:48 | 46.10406 | 15.68379 | 35049 ft | 483 kts | 152° |
| 2026-05-04 21:48 | 46.04635 | 15.73199 | 35049 ft | 483 kts | 152° |
| 2026-05-04 21:49 | 45.98818 | 15.78059 | 35048 ft | 484 kts | 152° |
| 2026-05-04 21:49 | 45.92999 | 15.82922 | 35049 ft | 484 kts | 152° |
| 2026-05-04 21:50 | 45.87174 | 15.87784 | 35053 ft | 484 kts | 152° |
| 2026-05-04 21:50 | 45.81344 | 15.92636 | 35055 ft | 485 kts | 152° |
| 2026-05-04 21:51 | 45.75507 | 15.97483 | 35065 ft | 485 kts | 152° |
| 2026-05-04 21:51 | 45.69665 | 16.02321 | 35057 ft | 485 kts | 152° |
| 2026-05-04 21:52 | 45.63816 | 16.07153 | 35055 ft | 486 kts | 152° |
| 2026-05-04 21:52 | 45.57964 | 16.11977 | 35056 ft | 486 kts | 152° |
| 2026-05-04 21:53 | 45.52106 | 16.16793 | 35052 ft | 486 kts | 152° |
| 2026-05-04 21:53 | 45.46249 | 16.21597 | 35053 ft | 486 kts | 152° |
| 2026-05-04 21:54 | 45.40384 | 16.26395 | 35053 ft | 486 kts | 152° |
| 2026-05-04 21:54 | 45.34516 | 16.31185 | 35068 ft | 487 kts | 152° |
| 2026-05-04 21:55 | 45.28638 | 16.35973 | 35067 ft | 487 kts | 152° |
| 2026-05-04 21:55 | 45.22754 | 16.40753 | 35047 ft | 488 kts | 152° |
| 2026-05-04 21:56 | 45.16860 | 16.45532 | 35047 ft | 488 kts | 152° |
| 2026-05-04 21:56 | 45.11092 | 16.50618 | 35064 ft | 490 kts | 147° |
| 2026-05-04 21:57 | 45.05433 | 16.56004 | 35064 ft | 490 kts | 147° |
| 2026-05-04 21:57 | 44.99766 | 16.61379 | 35066 ft | 491 kts | 148° |
| 2026-05-04 21:58 | 44.95040 | 16.65831 | 35072 ft | 491 kts | 147° |
| 2026-05-04 21:58 | 44.88422 | 16.72037 | 35077 ft | 492 kts | 148° |
| 2026-05-04 21:59 | 44.83641 | 16.76508 | 35083 ft | 493 kts | 148° |
| 2026-05-04 21:59 | 44.77921 | 16.81848 | 35076 ft | 493 kts | 148° |
| 2026-05-04 22:00 | 44.72197 | 16.87178 | 35088 ft | 494 kts | 148° |
| 2026-05-04 22:00 | 44.66462 | 16.92507 | 35082 ft | 495 kts | 148° |
| 2026-05-04 22:01 | 44.60715 | 16.97834 | 35096 ft | 495 kts | 148° |
| 2026-05-04 22:01 | 44.54958 | 17.03159 | 35111 ft | 496 kts | 148° |
| 2026-05-04 22:02 | 44.49190 | 17.08482 | 35098 ft | 496 kts | 148° |
| 2026-05-04 22:02 | 44.43574 | 17.13969 | 35107 ft | 496 kts | 144° |
| 2026-05-04 22:03 | 44.38043 | 17.19748 | 35125 ft | 497 kts | 144° |
| 2026-05-04 22:03 | 44.32508 | 17.25535 | 35123 ft | 497 kts | 144° |
| 2026-05-04 22:04 | 44.26958 | 17.31296 | 35130 ft | 498 kts | 144° |
| 2026-05-04 22:04 | 44.21392 | 17.37043 | 35117 ft | 498 kts | 144° |
| 2026-05-04 22:05 | 44.15815 | 17.42782 | 35130 ft | 498 kts | 144° |
| 2026-05-04 22:05 | 44.10242 | 17.48506 | 35131 ft | 498 kts | 144° |
| 2026-05-04 22:06 | 44.04655 | 17.54232 | 35129 ft | 499 kts | 144° |
| 2026-05-04 22:06 | 43.99067 | 17.59944 | 35125 ft | 499 kts | 144° |
| 2026-05-04 22:07 | 43.93471 | 17.65652 | 35122 ft | 500 kts | 144° |
| 2026-05-04 22:07 | 43.87854 | 17.71368 | 35127 ft | 501 kts | 144° |
| 2026-05-04 22:08 | 43.82232 | 17.77075 | 35128 ft | 501 kts | 144° |
| 2026-05-04 22:08 | 43.76606 | 17.82772 | 35134 ft | 501 kts | 144° |
| 2026-05-04 22:09 | 43.70971 | 17.88465 | 35132 ft | 502 kts | 144° |
| 2026-05-04 22:09 | 43.65322 | 17.94158 | 35139 ft | 503 kts | 144° |
| 2026-05-04 22:10 | 43.59668 | 17.99842 | 35148 ft | 503 kts | 144° |
| 2026-05-04 22:10 | 43.54006 | 18.05521 | 35142 ft | 504 kts | 144° |
| 2026-05-04 22:11 | 43.48335 | 18.11197 | 35146 ft | 504 kts | 144° |
| 2026-05-04 22:11 | 43.42667 | 18.16856 | 35154 ft | 504 kts | 144° |
| 2026-05-04 22:12 | 43.37020 | 18.22479 | 35149 ft | 504 kts | 144° |
| 2026-05-04 22:12 | 43.31343 | 18.28120 | 35160 ft | 504 kts | 144° |
| 2026-05-04 22:13 | 43.25665 | 18.33748 | 35165 ft | 504 kts | 145° |
| 2026-05-04 22:13 | 43.19985 | 18.39366 | 35165 ft | 503 kts | 145° |
| 2026-05-04 22:14 | 43.14300 | 18.44975 | 35170 ft | 503 kts | 144° |
| 2026-05-04 22:14 | 43.08616 | 18.50570 | 35168 ft | 503 kts | 145° |
| 2026-05-04 22:15 | 43.02921 | 18.56163 | 35176 ft | 504 kts | 145° |
| 2026-05-04 22:15 | 42.97210 | 18.61758 | 35165 ft | 505 kts | 145° |
| 2026-05-04 22:16 | 42.91492 | 18.67347 | 35168 ft | 506 kts | 145° |
| 2026-05-04 22:16 | 42.85760 | 18.72937 | 35158 ft | 507 kts | 145° |
| 2026-05-04 22:17 | 42.80026 | 18.78515 | 35177 ft | 507 kts | 144° |
| 2026-05-04 22:17 | 42.74277 | 18.84095 | 35160 ft | 507 kts | 144° |
| 2026-05-04 22:18 | 42.68528 | 18.89663 | 35152 ft | 507 kts | 144° |
| 2026-05-04 22:18 | 42.62775 | 18.95222 | 35143 ft | 507 kts | 145° |
| 2026-05-04 22:19 | 42.57023 | 19.00766 | 35156 ft | 507 kts | 145° |
| 2026-05-04 22:19 | 42.51259 | 19.06309 | 35148 ft | 508 kts | 145° |
| 2026-05-04 22:20 | 42.45496 | 19.11839 | 35160 ft | 508 kts | 145° |
| 2026-05-04 22:20 | 42.39718 | 19.17371 | 35144 ft | 509 kts | 144° |
| 2026-05-04 22:21 | 42.33976 | 19.22856 | 35160 ft | 509 kts | 144° |
| 2026-05-04 22:21 | 42.28187 | 19.28374 | 35158 ft | 509 kts | 144° |
| 2026-05-04 22:22 | 42.22396 | 19.33882 | 35154 ft | 509 kts | 144° |
| 2026-05-04 22:22 | 42.16610 | 19.39407 | 35141 ft | 510 kts | 144° |
| 2026-05-04 22:23 | 42.10826 | 19.44944 | 35136 ft | 510 kts | 144° |
| 2026-05-04 22:23 | 42.05035 | 19.50474 | 35146 ft | 511 kts | 144° |
| 2026-05-04 22:24 | 41.99236 | 19.55996 | 35151 ft | 511 kts | 144° |
| 2026-05-04 22:24 | 41.93431 | 19.61508 | 35132 ft | 511 kts | 144° |
| 2026-05-04 22:25 | 41.87620 | 19.67014 | 35153 ft | 512 kts | 144° |
| 2026-05-04 22:25 | 41.81796 | 19.72519 | 35160 ft | 512 kts | 144° |
| 2026-05-04 22:26 | 41.75969 | 19.78015 | 35153 ft | 512 kts | 144° |
| 2026-05-04 22:26 | 41.70138 | 19.83502 | 35157 ft | 513 kts | 144° |
| 2026-05-04 22:27 | 41.64302 | 19.88983 | 35159 ft | 512 kts | 144° |
| 2026-05-04 22:27 | 41.58460 | 19.94455 | 35160 ft | 513 kts | 144° |
| 2026-05-04 22:28 | 41.52616 | 19.99917 | 35159 ft | 513 kts | 144° |
| 2026-05-04 22:28 | 41.46761 | 20.05377 | 35159 ft | 513 kts | 144° |
| 2026-05-04 22:29 | 41.40901 | 20.10830 | 35159 ft | 514 kts | 144° |
| 2026-05-04 22:29 | 41.35029 | 20.16282 | 35178 ft | 515 kts | 144° |
| 2026-05-04 22:30 | 41.29154 | 20.21724 | 35169 ft | 514 kts | 144° |
| 2026-05-04 22:30 | 41.23323 | 20.27113 | 35174 ft | 514 kts | 144° |
| 2026-05-04 22:31 | 41.17450 | 20.32530 | 35164 ft | 514 kts | 144° |
| 2026-05-04 22:31 | 41.11565 | 20.37946 | 35180 ft | 515 kts | 145° |
| 2026-05-04 22:32 | 41.05668 | 20.43360 | 35179 ft | 516 kts | 145° |
| 2026-05-04 22:32 | 40.99758 | 20.48774 | 35193 ft | 516 kts | 145° |
| 2026-05-04 22:33 | 40.93848 | 20.54176 | 35192 ft | 517 kts | 145° |
| 2026-05-04 22:33 | 40.87927 | 20.59575 | 35183 ft | 517 kts | 145° |
| 2026-05-04 22:34 | 40.82002 | 20.64967 | 35184 ft | 517 kts | 145° |
| 2026-05-04 22:34 | 40.76082 | 20.70344 | 35186 ft | 516 kts | 145° |
| 2026-05-04 22:35 | 40.70165 | 20.75705 | 35181 ft | 516 kts | 145° |
| 2026-05-04 22:35 | 40.64238 | 20.81064 | 35207 ft | 516 kts | 145° |
| 2026-05-04 22:36 | 40.58313 | 20.86410 | 35189 ft | 517 kts | 145° |
| 2026-05-04 22:36 | 40.52375 | 20.91757 | 35202 ft | 517 kts | 145° |
| 2026-05-04 22:37 | 40.46506 | 20.97215 | 35190 ft | 516 kts | 140° |
| 2026-05-04 22:37 | 40.40996 | 21.03264 | 35193 ft | 517 kts | 139° |
| 2026-05-04 22:38 | 40.35500 | 21.09349 | 35196 ft | 517 kts | 139° |
| 2026-05-04 22:38 | 40.29981 | 21.15404 | 35205 ft | 518 kts | 139° |
| 2026-05-04 22:39 | 40.24444 | 21.21434 | 35191 ft | 518 kts | 139° |
| 2026-05-04 22:39 | 40.18903 | 21.27447 | 35178 ft | 517 kts | 139° |
| 2026-05-04 22:40 | 40.13356 | 21.33453 | 35179 ft | 518 kts | 139° |
| 2026-05-04 22:40 | 40.07848 | 21.39408 | 35181 ft | 518 kts | 139° |
| 2026-05-04 22:41 | 40.02254 | 21.45443 | 35175 ft | 518 kts | 139° |
| 2026-05-04 22:41 | 39.96734 | 21.51386 | 35175 ft | 518 kts | 139° |
| 2026-05-04 22:42 | 39.91169 | 21.57363 | 35161 ft | 519 kts | 139° |
| 2026-05-04 22:42 | 39.85599 | 21.63333 | 35175 ft | 519 kts | 140° |
| 2026-05-04 22:43 | 39.80019 | 21.69301 | 35165 ft | 519 kts | 140° |
| 2026-05-04 22:43 | 39.74435 | 21.75261 | 35161 ft | 519 kts | 140° |
| 2026-05-04 22:44 | 39.69755 | 21.80244 | 35181 ft | 519 kts | 140° |
| 2026-05-04 22:44 | 39.63255 | 21.87152 | 35147 ft | 520 kts | 140° |
| 2026-05-04 22:45 | 39.57659 | 21.93085 | 35143 ft | 520 kts | 140° |
| 2026-05-04 22:45 | 39.50172 | 22.01004 | 35149 ft | 519 kts | 140° |
| 2026-05-04 22:46 | 39.44570 | 22.06913 | 35146 ft | 519 kts | 140° |
| 2026-05-04 22:46 | 39.38964 | 22.12815 | 35139 ft | 520 kts | 140° |
| 2026-05-04 22:47 | 39.33352 | 22.18709 | 35155 ft | 521 kts | 140° |
| 2026-05-04 22:47 | 39.27726 | 22.24606 | 35150 ft | 521 kts | 140° |
| 2026-05-04 22:48 | 39.22092 | 22.30500 | 35154 ft | 522 kts | 140° |
| 2026-05-04 22:48 | 39.16450 | 22.36388 | 35152 ft | 522 kts | 140° |
| 2026-05-04 22:49 | 39.10840 | 22.42232 | 35150 ft | 522 kts | 140° |
| 2026-05-04 22:49 | 39.05188 | 22.48105 | 35160 ft | 523 kts | 140° |
| 2026-05-04 22:50 | 38.99525 | 22.53979 | 35153 ft | 523 kts | 140° |
| 2026-05-04 22:50 | 38.93852 | 22.59849 | 35139 ft | 523 kts | 140° |
| 2026-05-04 22:51 | 38.88182 | 22.65705 | 35146 ft | 523 kts | 140° |
| 2026-05-04 22:51 | 38.82509 | 22.71551 | 35140 ft | 523 kts | 140° |
| 2026-05-04 22:52 | 38.76829 | 22.77393 | 35147 ft | 524 kts | 141° |
| 2026-05-04 22:52 | 38.71140 | 22.83231 | 35153 ft | 525 kts | 141° |
| 2026-05-04 22:53 | 38.65442 | 22.89066 | 35146 ft | 525 kts | 141° |
| 2026-05-04 22:53 | 38.59737 | 22.94896 | 35153 ft | 525 kts | 141° |
| 2026-05-04 22:54 | 38.54031 | 23.00715 | 35140 ft | 525 kts | 141° |
| 2026-05-04 22:54 | 38.48317 | 23.06530 | 35141 ft | 525 kts | 141° |
| 2026-05-04 22:55 | 38.42593 | 23.12343 | 35142 ft | 526 kts | 141° |
| 2026-05-04 22:55 | 38.36867 | 23.18145 | 35159 ft | 526 kts | 141° |
| 2026-05-04 22:56 | 38.31129 | 23.23947 | 35140 ft | 527 kts | 141° |
| 2026-05-04 22:56 | 38.25387 | 23.29743 | 35136 ft | 527 kts | 141° |
| 2026-05-04 22:57 | 38.19647 | 23.35523 | 35159 ft | 527 kts | 141° |
| 2026-05-04 22:57 | 38.13902 | 23.41296 | 35138 ft | 526 kts | 141° |
| 2026-05-04 22:58 | 38.08162 | 23.47054 | 35138 ft | 525 kts | 141° |
| 2026-05-04 22:58 | 38.02427 | 23.52793 | 35121 ft | 525 kts | 141° |
| 2026-05-04 22:59 | 37.96694 | 23.58520 | 35135 ft | 524 kts | 141° |
| 2026-05-04 22:59 | 37.90963 | 23.64232 | 35133 ft | 524 kts | 141° |
| 2026-05-04 23:00 | 37.85261 | 23.69904 | 35132 ft | 525 kts | 141° |
| 2026-05-04 23:00 | 37.79475 | 23.75649 | 35149 ft | 525 kts | 142° |
| 2026-05-04 23:01 | 37.73760 | 23.81311 | 35125 ft | 526 kts | 142° |
| 2026-05-04 23:01 | 37.67996 | 23.87010 | 35128 ft | 527 kts | 142° |
| 2026-05-04 23:02 | 37.62221 | 23.92708 | 35128 ft | 528 kts | 142° |
| 2026-05-04 23:02 | 37.56430 | 23.98411 | 35124 ft | 528 kts | 142° |
| 2026-05-04 23:03 | 37.50637 | 24.04103 | 35123 ft | 529 kts | 142° |
| 2026-05-04 23:03 | 37.44830 | 24.09799 | 35135 ft | 529 kts | 142° |
| 2026-05-04 23:04 | 37.39019 | 24.15486 | 35125 ft | 530 kts | 142° |
| 2026-05-04 23:04 | 37.33203 | 24.21167 | 35122 ft | 530 kts | 142° |
| 2026-05-04 23:05 | 37.27381 | 24.26842 | 35119 ft | 529 kts | 142° |
| 2026-05-04 23:05 | 37.21565 | 24.32500 | 35123 ft | 529 kts | 142° |
| 2026-05-04 23:06 | 37.15744 | 24.38152 | 35116 ft | 529 kts | 142° |
| 2026-05-04 23:06 | 37.09916 | 24.43799 | 35131 ft | 530 kts | 142° |
| 2026-05-04 23:07 | 37.04080 | 24.49442 | 35122 ft | 530 kts | 142° |
| 2026-05-04 23:07 | 36.98240 | 24.55079 | 35122 ft | 530 kts | 142° |
| 2026-05-04 23:08 | 36.92405 | 24.60699 | 35105 ft | 530 kts | 142° |
| 2026-05-04 23:08 | 36.86559 | 24.66319 | 35113 ft | 531 kts | 142° |
| 2026-05-04 23:09 | 36.80694 | 24.71944 | 35118 ft | 532 kts | 142° |
| 2026-05-04 23:09 | 36.74816 | 24.77573 | 35121 ft | 533 kts | 142° |
| 2026-05-04 23:10 | 36.68957 | 24.83171 | 35119 ft | 534 kts | 142° |
| 2026-05-04 23:10 | 36.63052 | 24.88803 | 35108 ft | 535 kts | 142° |
| 2026-05-04 23:11 | 36.57139 | 24.94433 | 35116 ft | 535 kts | 143° |
| 2026-05-04 23:11 | 36.51218 | 25.00056 | 35115 ft | 536 kts | 143° |
| 2026-05-04 23:12 | 36.45295 | 25.05669 | 35128 ft | 536 kts | 143° |
| 2026-05-04 23:12 | 36.39365 | 25.11281 | 35118 ft | 536 kts | 143° |
| 2026-05-04 23:13 | 36.33434 | 25.16881 | 35104 ft | 535 kts | 143° |
| 2026-05-04 23:13 | 36.27507 | 25.22468 | 35116 ft | 535 kts | 143° |
| 2026-05-04 23:14 | 36.21580 | 25.28043 | 35114 ft | 535 kts | 143° |
| 2026-05-04 23:14 | 36.15644 | 25.33616 | 35139 ft | 536 kts | 143° |
| 2026-05-04 23:15 | 36.09705 | 25.39180 | 35127 ft | 536 kts | 143° |
| 2026-05-04 23:15 | 36.03758 | 25.44741 | 35107 ft | 536 kts | 143° |
| 2026-05-04 23:16 | 35.97803 | 25.50299 | 35119 ft | 537 kts | 143° |
| 2026-05-04 23:16 | 35.91833 | 25.55860 | 35117 ft | 538 kts | 143° |
| 2026-05-04 23:17 | 35.85855 | 25.61418 | 35116 ft | 538 kts | 143° |
| 2026-05-04 23:17 | 35.79869 | 25.66972 | 35130 ft | 539 kts | 143° |
| 2026-05-04 23:18 | 35.73883 | 25.72516 | 35110 ft | 539 kts | 143° |
| 2026-05-04 23:18 | 35.67887 | 25.78058 | 35115 ft | 539 kts | 143° |
| 2026-05-04 23:19 | 35.61892 | 25.83589 | 35113 ft | 539 kts | 143° |
| 2026-05-04 23:19 | 35.55891 | 25.89114 | 35111 ft | 539 kts | 143° |
| 2026-05-04 23:20 | 35.49882 | 25.94637 | 35114 ft | 540 kts | 143° |
| 2026-05-04 23:20 | 35.43875 | 26.00147 | 35116 ft | 539 kts | 144° |
| 2026-05-04 23:21 | 35.37880 | 26.05636 | 35108 ft | 537 kts | 144° |
| 2026-05-04 23:21 | 35.31936 | 26.11067 | 35109 ft | 536 kts | 144° |
| 2026-05-04 23:22 | 35.25965 | 26.16513 | 35111 ft | 535 kts | 144° |
| 2026-05-04 23:22 | 35.20003 | 26.21940 | 35093 ft | 535 kts | 144° |
| 2026-05-04 23:23 | 35.14020 | 26.27374 | 35125 ft | 537 kts | 144° |
| 2026-05-04 23:23 | 35.08015 | 26.32821 | 35113 ft | 538 kts | 144° |
| 2026-05-04 23:24 | 35.01987 | 26.38281 | 35109 ft | 540 kts | 144° |
| 2026-05-04 23:24 | 34.95952 | 26.43734 | 35110 ft | 540 kts | 144° |
| 2026-05-04 23:25 | 34.89912 | 26.49179 | 35088 ft | 540 kts | 144° |
| 2026-05-04 23:25 | 34.83862 | 26.54625 | 35107 ft | 541 kts | 144° |
| 2026-05-04 23:26 | 34.77808 | 26.60065 | 35121 ft | 541 kts | 144° |
| 2026-05-04 23:26 | 34.71744 | 26.65503 | 35109 ft | 541 kts | 144° |
| 2026-05-04 23:27 | 34.65689 | 26.70924 | 35106 ft | 541 kts | 144° |
| 2026-05-04 23:27 | 34.59630 | 26.76338 | 35098 ft | 540 kts | 145° |
| 2026-05-04 23:28 | 34.53563 | 26.81748 | 35104 ft | 541 kts | 145° |
| 2026-05-04 23:28 | 34.47494 | 26.87150 | 35129 ft | 542 kts | 145° |
| 2026-05-04 23:29 | 34.41402 | 26.92562 | 35106 ft | 543 kts | 145° |
| 2026-05-04 23:29 | 34.35350 | 26.97931 | 35105 ft | 543 kts | 145° |
| 2026-05-04 23:30 | 34.29260 | 27.03323 | 35097 ft | 542 kts | 146° |
| 2026-05-04 23:30 | 34.23171 | 27.08703 | 35103 ft | 542 kts | 146° |
| 2026-05-04 23:31 | 34.17071 | 27.14084 | 35103 ft | 543 kts | 146° |
| 2026-05-04 23:31 | 34.10973 | 27.19453 | 35113 ft | 543 kts | 146° |
| 2026-05-04 23:32 | 34.05853 | 27.23955 | 35101 ft | 543 kts | 146° |
| 2026-05-04 23:32 | 33.99743 | 27.29319 | 35090 ft | 543 kts | 146° |
| 2026-05-04 23:33 | 33.93443 | 27.34264 | 35098 ft | 538 kts | 155° |
| 2026-05-04 23:33 | 33.86705 | 27.37931 | 35106 ft | 534 kts | 161° |
| 2026-05-04 23:34 | 33.79819 | 27.41483 | 35103 ft | 535 kts | 161° |
| 2026-05-04 23:34 | 33.73037 | 27.45034 | 35101 ft | 535 kts | 161° |
| 2026-05-04 23:35 | 33.66179 | 27.48659 | 35108 ft | 535 kts | 161° |
| 2026-05-04 23:35 | 33.59414 | 27.52235 | 35104 ft | 535 kts | 161° |
| 2026-05-04 23:36 | 33.52603 | 27.55825 | 35105 ft | 535 kts | 161° |
| 2026-05-04 23:36 | 33.45794 | 27.59405 | 35100 ft | 533 kts | 161° |
| 2026-05-04 23:37 | 33.38963 | 27.62990 | 35102 ft | 533 kts | 161° |
| 2026-05-04 23:37 | 33.32177 | 27.66544 | 35104 ft | 532 kts | 161° |
| 2026-05-04 23:38 | 33.25441 | 27.70066 | 35106 ft | 532 kts | 161° |
| 2026-05-04 23:38 | 33.18665 | 27.73605 | 35098 ft | 531 kts | 161° |
| 2026-05-04 23:39 | 33.11897 | 27.77132 | 35103 ft | 531 kts | 161° |
| 2026-05-04 23:39 | 33.05127 | 27.80654 | 35108 ft | 531 kts | 161° |
| 2026-05-04 23:40 | 32.98348 | 27.84175 | 35107 ft | 531 kts | 161° |
| 2026-05-04 23:40 | 32.91570 | 27.87691 | 35087 ft | 531 kts | 162° |
| 2026-05-04 23:41 | 32.84806 | 27.91193 | 35097 ft | 531 kts | 162° |
| 2026-05-04 23:41 | 32.78032 | 27.94694 | 35094 ft | 531 kts | 162° |
| 2026-05-04 23:42 | 32.71252 | 27.98192 | 35101 ft | 531 kts | 162° |
| 2026-05-04 23:42 | 32.64473 | 28.01684 | 35116 ft | 531 kts | 162° |
| 2026-05-04 23:43 | 32.57690 | 28.05173 | 35101 ft | 531 kts | 162° |
| 2026-05-04 23:43 | 32.50907 | 28.08656 | 35106 ft | 531 kts | 162° |
| 2026-05-04 23:44 | 32.44130 | 28.12130 | 35103 ft | 530 kts | 162° |
| 2026-05-04 23:44 | 32.37373 | 28.15589 | 35110 ft | 528 kts | 162° |
| 2026-05-04 23:45 | 32.30647 | 28.19026 | 35105 ft | 526 kts | 162° |
| 2026-05-04 23:45 | 32.23943 | 28.22445 | 35106 ft | 524 kts | 162° |
| 2026-05-04 23:46 | 32.17256 | 28.25850 | 35112 ft | 523 kts | 162° |
| 2026-05-04 23:46 | 32.10575 | 28.29247 | 35104 ft | 522 kts | 162° |
| 2026-05-04 23:47 | 32.03917 | 28.32627 | 35106 ft | 521 kts | 162° |
| 2026-05-04 23:47 | 31.97262 | 28.36001 | 35115 ft | 520 kts | 162° |
| 2026-05-04 23:48 | 31.90615 | 28.39366 | 35114 ft | 520 kts | 162° |
| 2026-05-04 23:48 | 31.83967 | 28.42722 | 35093 ft | 519 kts | 162° |
| 2026-05-04 23:49 | 31.77328 | 28.46046 | 35106 ft | 518 kts | 163° |
| 2026-05-04 23:49 | 31.70690 | 28.49360 | 35115 ft | 518 kts | 163° |
| 2026-05-04 23:50 | 31.64063 | 28.52670 | 35117 ft | 518 kts | 163° |
| 2026-05-04 23:50 | 31.57476 | 28.55954 | 35083 ft | 518 kts | 163° |
| 2026-05-04 23:51 | 31.50845 | 28.59253 | 35113 ft | 518 kts | 163° |
| 2026-05-04 23:51 | 31.44205 | 28.62552 | 35119 ft | 519 kts | 163° |
| 2026-05-04 23:52 | 31.37559 | 28.65851 | 35118 ft | 519 kts | 163° |
| 2026-05-04 23:52 | 31.30908 | 28.69148 | 35125 ft | 519 kts | 163° |
| 2026-05-04 23:53 | 31.24262 | 28.72437 | 35106 ft | 518 kts | 163° |
| 2026-05-04 23:53 | 31.17616 | 28.75721 | 35114 ft | 518 kts | 163° |
| 2026-05-04 23:54 | 31.10980 | 28.78994 | 35118 ft | 518 kts | 163° |
| 2026-05-04 23:54 | 31.04342 | 28.82264 | 35119 ft | 518 kts | 163° |
| 2026-05-04 23:55 | 30.97713 | 28.85525 | 35117 ft | 517 kts | 164° |
| 2026-05-04 23:56 | 30.87758 | 28.90411 | 35114 ft | 518 kts | 164° |
| 2026-05-04 23:56 | 30.81112 | 28.93667 | 35120 ft | 519 kts | 164° |
| 2026-05-04 23:57 | 30.74501 | 28.96902 | 35080 ft | 519 kts | 164° |
| 2026-05-04 23:57 | 30.67860 | 29.00149 | 35114 ft | 518 kts | 165° |
| 2026-05-04 23:58 | 30.61217 | 29.03389 | 35113 ft | 518 kts | 165° |
| 2026-05-04 23:58 | 30.54582 | 29.06651 | 35114 ft | 520 kts | 162° |
| 2026-05-04 23:59 | 30.48361 | 29.11132 | 35119 ft | 534 kts | 148° |
| 2026-05-04 23:59 | 30.42981 | 29.17169 | 35125 ft | 542 kts | 137° |
| 2026-05-05 00:00 | 30.37861 | 29.23593 | 35117 ft | 542 kts | 139° |
| 2026-05-05 00:00 | 30.32513 | 29.29835 | 35119 ft | 543 kts | 140° |
| 2026-05-05 00:01 | 30.27261 | 29.36049 | 35119 ft | 544 kts | 140° |
| 2026-05-05 00:01 | 30.21993 | 29.42357 | 35117 ft | 545 kts | 139° |
| 2026-05-05 00:02 | 30.16727 | 29.48659 | 35117 ft | 545 kts | 140° |
| 2026-05-05 00:02 | 30.11459 | 29.54940 | 35115 ft | 544 kts | 140° |
| 2026-05-05 00:03 | 30.06192 | 29.61203 | 35123 ft | 543 kts | 140° |
| 2026-05-05 00:03 | 30.00929 | 29.67450 | 35121 ft | 542 kts | 140° |
| 2026-05-05 00:04 | 29.95665 | 29.73688 | 35122 ft | 542 kts | 140° |
| 2026-05-05 00:04 | 29.90399 | 29.79919 | 35124 ft | 542 kts | 140° |
| 2026-05-05 00:05 | 29.85133 | 29.86141 | 35124 ft | 542 kts | 141° |
| 2026-05-05 00:05 | 29.79868 | 29.92352 | 35125 ft | 542 kts | 141° |
| 2026-05-05 00:06 | 29.74598 | 29.98558 | 35125 ft | 541 kts | 141° |
| 2026-05-05 00:06 | 29.69333 | 30.04749 | 35125 ft | 541 kts | 141° |
| 2026-05-05 00:07 | 29.64066 | 30.10932 | 35128 ft | 541 kts | 141° |
| 2026-05-05 00:07 | 29.58800 | 30.17107 | 35131 ft | 541 kts | 141° |
| 2026-05-05 00:08 | 29.53531 | 30.23271 | 35131 ft | 540 kts | 141° |
| 2026-05-05 00:08 | 29.48265 | 30.29424 | 35132 ft | 540 kts | 141° |
| 2026-05-05 00:09 | 29.43000 | 30.35570 | 35129 ft | 540 kts | 141° |
| 2026-05-05 00:09 | 29.37738 | 30.41718 | 35105 ft | 539 kts | 141° |
| 2026-05-05 00:10 | 29.32541 | 30.47910 | 35125 ft | 539 kts | 141° |
| 2026-05-05 00:10 | 29.27395 | 30.54067 | 35134 ft | 538 kts | 141° |
| 2026-05-05 00:11 | 29.22206 | 30.60251 | 35138 ft | 538 kts | 141° |
| 2026-05-05 00:11 | 29.17005 | 30.66424 | 35133 ft | 539 kts | 141° |
| 2026-05-05 00:12 | 29.11799 | 30.72593 | 35133 ft | 539 kts | 141° |
| 2026-05-05 00:12 | 29.06591 | 30.78755 | 35133 ft | 539 kts | 141° |
| 2026-05-05 00:13 | 29.01391 | 30.84901 | 35133 ft | 538 kts | 141° |
| 2026-05-05 00:13 | 28.96187 | 30.91041 | 35140 ft | 538 kts | 141° |
| 2026-05-05 00:14 | 28.90983 | 30.97171 | 35120 ft | 537 kts | 141° |
| 2026-05-05 00:14 | 28.85784 | 31.03287 | 35135 ft | 536 kts | 141° |
| 2026-05-05 00:15 | 28.80589 | 31.09388 | 35133 ft | 536 kts | 141° |
| 2026-05-05 00:15 | 28.75397 | 31.15478 | 35129 ft | 535 kts | 141° |
| 2026-05-05 00:16 | 28.70212 | 31.21550 | 35122 ft | 534 kts | 141° |
| 2026-05-05 00:16 | 28.65142 | 31.27750 | 35105 ft | 534 kts | 139° |
| 2026-05-05 00:17 | 28.60211 | 31.34060 | 35132 ft | 533 kts | 139° |
| 2026-05-05 00:17 | 28.56107 | 31.39294 | 35110 ft | 532 kts | 139° |
| 2026-05-05 00:18 | 28.51154 | 31.45541 | 35133 ft | 531 kts | 139° |
| 2026-05-05 00:18 | 28.46187 | 31.51766 | 35112 ft | 531 kts | 139° |
| 2026-05-05 00:19 | 28.41219 | 31.57985 | 35121 ft | 531 kts | 139° |
| 2026-05-05 00:19 | 28.36254 | 31.64195 | 35123 ft | 531 kts | 139° |
| 2026-05-05 00:20 | 28.31292 | 31.70395 | 35087 ft | 530 kts | 139° |
| 2026-05-05 00:20 | 28.26337 | 31.76578 | 35106 ft | 529 kts | 139° |
| 2026-05-05 00:21 | 28.21427 | 31.82695 | 35107 ft | 528 kts | 140° |
| 2026-05-05 00:21 | 28.16453 | 31.88880 | 35115 ft | 527 kts | 140° |
| 2026-05-05 00:22 | 28.11546 | 31.94976 | 35110 ft | 527 kts | 140° |
| 2026-05-05 00:22 | 28.06610 | 32.01098 | 35108 ft | 526 kts | 140° |
| 2026-05-05 00:23 | 28.02068 | 32.07672 | 35107 ft | 536 kts | 129° |
| 2026-05-05 00:23 | 27.98415 | 32.15087 | 35121 ft | 540 kts | 124° |
| 2026-05-05 00:24 | 27.94886 | 32.22594 | 35100 ft | 540 kts | 124° |
| 2026-05-05 00:24 | 27.91319 | 32.30068 | 35095 ft | 539 kts | 124° |
| 2026-05-05 00:25 | 27.87733 | 32.37491 | 35101 ft | 537 kts | 124° |
| 2026-05-05 00:25 | 27.84145 | 32.44883 | 35086 ft | 536 kts | 124° |
| 2026-05-05 00:26 | 27.80558 | 32.52264 | 35079 ft | 536 kts | 124° |
| 2026-05-05 00:26 | 27.76973 | 32.59637 | 35077 ft | 536 kts | 124° |
| 2026-05-05 00:27 | 27.73388 | 32.67002 | 35071 ft | 534 kts | 124° |
| 2026-05-05 00:27 | 27.69806 | 32.74345 | 35069 ft | 534 kts | 124° |
| 2026-05-05 00:28 | 27.66216 | 32.81689 | 35068 ft | 535 kts | 124° |
| 2026-05-05 00:28 | 27.62623 | 32.89029 | 35032 ft | 535 kts | 124° |
| 2026-05-05 00:29 | 27.59031 | 32.96356 | 35063 ft | 533 kts | 125° |
| 2026-05-05 00:29 | 27.55437 | 33.03673 | 35059 ft | 533 kts | 124° |
| 2026-05-05 00:30 | 27.51841 | 33.10981 | 35044 ft | 533 kts | 125° |
| 2026-05-05 00:30 | 27.48238 | 33.18291 | 35041 ft | 534 kts | 125° |
| 2026-05-05 00:31 | 27.44631 | 33.25596 | 35048 ft | 534 kts | 125° |
| 2026-05-05 00:31 | 27.41019 | 33.32902 | 35032 ft | 534 kts | 125° |
| 2026-05-05 00:32 | 27.37404 | 33.40201 | 35031 ft | 534 kts | 125° |
| 2026-05-05 00:32 | 27.33784 | 33.47498 | 35006 ft | 534 kts | 125° |
| 2026-05-05 00:33 | 27.30164 | 33.54786 | 35011 ft | 534 kts | 125° |
| 2026-05-05 00:33 | 27.26535 | 33.62082 | 35016 ft | 535 kts | 125° |
| 2026-05-05 00:34 | 27.22906 | 33.69369 | 35020 ft | 535 kts | 126° |
| 2026-05-05 00:34 | 27.19259 | 33.76678 | 34995 ft | 536 kts | 126° |
| 2026-05-05 00:35 | 27.16028 | 33.84221 | 34998 ft | 544 kts | 117° |
| 2026-05-05 00:35 | 27.13278 | 33.92143 | 34998 ft | 545 kts | 116° |
| 2026-05-05 00:36 | 27.10516 | 34.00055 | 34982 ft | 544 kts | 117° |
| 2026-05-05 00:36 | 27.07704 | 34.07936 | 34987 ft | 544 kts | 117° |
| 2026-05-05 00:37 | 27.04880 | 34.15804 | 34976 ft | 543 kts | 117° |
| 2026-05-05 00:37 | 27.02061 | 34.23661 | 34956 ft | 543 kts | 117° |
| 2026-05-05 00:38 | 26.99248 | 34.31510 | 34966 ft | 542 kts | 117° |
| 2026-05-05 00:38 | 26.96441 | 34.39340 | 34967 ft | 541 kts | 117° |
| 2026-05-05 00:39 | 26.93633 | 34.47154 | 34966 ft | 540 kts | 117° |
| 2026-05-05 00:39 | 26.90825 | 34.54953 | 34956 ft | 540 kts | 118° |
| 2026-05-05 00:40 | 26.88013 | 34.62744 | 34962 ft | 540 kts | 118° |
| 2026-05-05 00:40 | 26.85195 | 34.70539 | 34957 ft | 540 kts | 118° |
| 2026-05-05 00:41 | 26.82375 | 34.78326 | 34951 ft | 540 kts | 118° |
| 2026-05-05 00:41 | 26.79546 | 34.86119 | 34943 ft | 541 kts | 118° |
| 2026-05-05 00:42 | 26.76709 | 34.93923 | 34946 ft | 541 kts | 118° |
| 2026-05-05 00:42 | 26.73857 | 35.01720 | 34939 ft | 542 kts | 118° |
| 2026-05-05 00:43 | 26.70994 | 35.09522 | 34944 ft | 542 kts | 118° |
| 2026-05-05 00:43 | 26.68127 | 35.17323 | 34941 ft | 543 kts | 118° |
| 2026-05-05 00:44 | 26.65260 | 35.25117 | 34917 ft | 543 kts | 118° |
| 2026-05-05 00:44 | 26.62384 | 35.32920 | 34928 ft | 542 kts | 118° |
| 2026-05-05 00:45 | 26.59507 | 35.40712 | 34931 ft | 542 kts | 118° |
| 2026-05-05 00:45 | 26.56647 | 35.48442 | 34928 ft | 542 kts | 119° |
| 2026-05-05 00:46 | 26.53693 | 35.56248 | 34919 ft | 541 kts | 120° |
| 2026-05-05 00:46 | 26.50741 | 35.63915 | 34922 ft | 541 kts | 120° |
| 2026-05-05 00:47 | 26.47755 | 35.71671 | 35265 ft | 545 kts | 120° |
| 2026-05-05 00:47 | 26.46265 | 35.75553 | 35633 ft | 543 kts | 120° |
| 2026-05-05 00:47 | 26.44781 | 35.79420 | 35990 ft | 542 kts | 120° |
| 2026-05-05 00:47 | 26.43300 | 35.83281 | 36361 ft | 540 kts | 120° |
| 2026-05-05 00:48 | 26.41822 | 35.87126 | 36700 ft | 540 kts | 120° |
| 2026-05-05 00:48 | 26.40339 | 35.90974 | 36876 ft | 542 kts | 120° |
| 2026-05-05 00:48 | 26.38843 | 35.94848 | 36903 ft | 544 kts | 120° |
| 2026-05-05 00:49 | 26.35864 | 36.02567 | 36901 ft | 540 kts | 120° |
| 2026-05-05 00:49 | 26.32898 | 36.10242 | 36910 ft | 538 kts | 121° |
| 2026-05-05 00:50 | 26.29936 | 36.17884 | 36912 ft | 536 kts | 121° |
| 2026-05-05 00:50 | 26.26974 | 36.25510 | 36895 ft | 536 kts | 121° |
| 2026-05-05 00:51 | 26.24009 | 36.33133 | 36909 ft | 536 kts | 121° |
| 2026-05-05 00:51 | 26.21039 | 36.40756 | 36916 ft | 537 kts | 121° |
| 2026-05-05 00:52 | 26.18052 | 36.48385 | 36914 ft | 537 kts | 122° |
| 2026-05-05 00:52 | 26.14620 | 36.55681 | 36923 ft | 531 kts | 127° |
| 2026-05-05 00:53 | 26.11044 | 36.62817 | 36913 ft | 532 kts | 127° |
| 2026-05-05 00:53 | 26.07457 | 36.70016 | 36916 ft | 533 kts | 127° |
| 2026-05-05 00:54 | 26.03890 | 36.77241 | 36898 ft | 533 kts | 127° |
| 2026-05-05 00:54 | 26.00331 | 36.84459 | 36910 ft | 532 kts | 127° |
| 2026-05-05 00:55 | 25.96769 | 36.91662 | 36920 ft | 531 kts | 127° |
| 2026-05-05 00:55 | 25.93207 | 36.98848 | 36925 ft | 531 kts | 127° |
| 2026-05-05 00:56 | 25.89648 | 37.06018 | 36914 ft | 530 kts | 127° |
| 2026-05-05 00:56 | 25.86093 | 37.13168 | 36919 ft | 529 kts | 127° |
| 2026-05-05 00:57 | 25.82536 | 37.20314 | 36924 ft | 528 kts | 127° |
| 2026-05-05 00:57 | 25.78979 | 37.27448 | 36910 ft | 528 kts | 128° |
| 2026-05-05 00:58 | 25.75431 | 37.34572 | 36934 ft | 527 kts | 128° |
| 2026-05-05 00:58 | 25.71884 | 37.41689 | 36935 ft | 527 kts | 128° |
| 2026-05-05 00:59 | 25.68334 | 37.48803 | 36934 ft | 528 kts | 128° |
| 2026-05-05 00:59 | 25.64769 | 37.55927 | 36936 ft | 528 kts | 128° |
| 2026-05-05 01:00 | 25.61214 | 37.63049 | 36942 ft | 528 kts | 128° |
| 2026-05-05 01:00 | 25.57643 | 37.70152 | 36952 ft | 528 kts | 128° |
| 2026-05-05 01:01 | 25.54064 | 37.77262 | 36940 ft | 529 kts | 128° |
| 2026-05-05 01:01 | 25.50508 | 37.84333 | 36921 ft | 529 kts | 128° |
| 2026-05-05 01:02 | 25.46927 | 37.91443 | 36927 ft | 529 kts | 128° |
| 2026-05-05 01:02 | 25.43341 | 37.98549 | 36918 ft | 529 kts | 128° |
| 2026-05-05 01:03 | 25.39747 | 38.05657 | 36912 ft | 529 kts | 128° |
| 2026-05-05 01:03 | 25.36154 | 38.12754 | 36897 ft | 529 kts | 128° |
| 2026-05-05 01:04 | 25.32573 | 38.19833 | 36882 ft | 527 kts | 129° |
| 2026-05-05 01:04 | 25.27189 | 38.30412 | 36913 ft | 527 kts | 129° |
| 2026-05-05 01:05 | 25.23597 | 38.37473 | 36921 ft | 528 kts | 129° |
| 2026-05-05 01:05 | 25.19991 | 38.44548 | 36924 ft | 529 kts | 129° |
| 2026-05-05 01:06 | 25.16987 | 38.50436 | 36926 ft | 529 kts | 129° |
| 2026-05-05 01:06 | 25.13372 | 38.57510 | 36930 ft | 530 kts | 129° |
| 2026-05-05 01:07 | 25.09753 | 38.64583 | 36886 ft | 528 kts | 129° |
| 2026-05-05 01:07 | 25.06151 | 38.71634 | 36910 ft | 526 kts | 129° |
| 2026-05-05 01:08 | 25.02560 | 38.78620 | 36880 ft | 522 kts | 129° |
| 2026-05-05 01:08 | 24.98981 | 38.85582 | 36920 ft | 524 kts | 129° |
| 2026-05-05 01:09 | 24.95374 | 38.92590 | 36936 ft | 527 kts | 129° |
| 2026-05-05 01:09 | 24.91735 | 38.99615 | 36951 ft | 529 kts | 129° |
| 2026-05-05 01:10 | 24.88070 | 39.06661 | 36961 ft | 531 kts | 129° |
| 2026-05-05 01:10 | 24.84395 | 39.13727 | 36930 ft | 532 kts | 128° |
| 2026-05-05 01:11 | 24.80719 | 39.20790 | 36947 ft | 531 kts | 129° |
| 2026-05-05 01:11 | 24.77048 | 39.27830 | 36950 ft | 530 kts | 129° |
| 2026-05-05 01:12 | 24.73378 | 39.34862 | 36958 ft | 530 kts | 129° |
| 2026-05-05 01:12 | 24.69708 | 39.41886 | 36967 ft | 530 kts | 128° |
| 2026-05-05 01:13 | 24.66035 | 39.48900 | 36969 ft | 529 kts | 128° |
| 2026-05-05 01:13 | 24.62359 | 39.55915 | 36932 ft | 529 kts | 129° |
| 2026-05-05 01:14 | 24.58713 | 39.62875 | 36965 ft | 524 kts | 129° |
| 2026-05-05 01:14 | 24.55510 | 39.70153 | 36979 ft | 539 kts | 116° |
| 2026-05-05 01:15 | 24.53774 | 39.78278 | 36966 ft | 555 kts | 102° |
| 2026-05-05 01:15 | 24.53026 | 39.86740 | 36962 ft | 557 kts | 101° |
| 2026-05-05 01:16 | 24.52316 | 39.95206 | 36965 ft | 556 kts | 101° |
| 2026-05-05 01:16 | 24.51536 | 40.03583 | 36940 ft | 555 kts | 101° |
| 2026-05-05 01:17 | 24.50713 | 40.11974 | 36962 ft | 552 kts | 102° |
| 2026-05-05 01:17 | 24.49886 | 40.20339 | 36970 ft | 550 kts | 102° |
| 2026-05-05 01:18 | 24.49065 | 40.28671 | 36957 ft | 548 kts | 102° |
| 2026-05-05 01:18 | 24.48244 | 40.36971 | 36965 ft | 546 kts | 102° |
| 2026-05-05 01:19 | 24.47419 | 40.45259 | 36973 ft | 546 kts | 102° |
| 2026-05-05 01:19 | 24.46589 | 40.53547 | 36970 ft | 546 kts | 102° |
| 2026-05-05 01:20 | 24.45757 | 40.61830 | 36978 ft | 546 kts | 102° |
| 2026-05-05 01:20 | 24.44923 | 40.70122 | 36976 ft | 547 kts | 102° |
| 2026-05-05 01:21 | 24.44088 | 40.78432 | 36984 ft | 548 kts | 102° |
| 2026-05-05 01:21 | 24.43246 | 40.86756 | 36977 ft | 549 kts | 102° |
| 2026-05-05 01:22 | 24.42398 | 40.95096 | 36966 ft | 550 kts | 102° |
| 2026-05-05 01:22 | 24.41546 | 41.03434 | 36982 ft | 550 kts | 102° |
| 2026-05-05 01:23 | 24.40689 | 41.11716 | 36982 ft | 550 kts | 102° |
| 2026-05-05 01:23 | 24.39803 | 41.20112 | 36981 ft | 550 kts | 102° |
| 2026-05-05 01:24 | 24.38919 | 41.28445 | 36983 ft | 550 kts | 102° |
| 2026-05-05 01:24 | 24.38039 | 41.36717 | 36976 ft | 550 kts | 102° |
| 2026-05-05 01:25 | 24.37148 | 41.45050 | 36986 ft | 550 kts | 102° |
| 2026-05-05 01:25 | 24.36254 | 41.53373 | 36980 ft | 550 kts | 102° |
| 2026-05-05 01:26 | 24.35356 | 41.61693 | 36989 ft | 549 kts | 102° |
| 2026-05-05 01:26 | 24.34452 | 41.70016 | 36983 ft | 549 kts | 102° |
| 2026-05-05 01:27 | 24.33547 | 41.78324 | 36961 ft | 549 kts | 102° |
| 2026-05-05 01:27 | 24.32159 | 41.86490 | 36970 ft | 540 kts | 112° |
| 2026-05-05 01:28 | 24.30034 | 41.94376 | 36992 ft | 540 kts | 113° |
| 2026-05-05 01:28 | 24.27883 | 42.02263 | 36980 ft | 540 kts | 112° |
| 2026-05-05 01:29 | 24.25774 | 42.10171 | 36984 ft | 540 kts | 112° |
| 2026-05-05 01:29 | 24.23686 | 42.18079 | 36983 ft | 541 kts | 112° |
| 2026-05-05 01:30 | 24.21595 | 42.25988 | 36975 ft | 540 kts | 112° |
| 2026-05-05 01:30 | 24.19500 | 42.33878 | 36977 ft | 540 kts | 112° |
| 2026-05-05 01:31 | 24.17398 | 42.41766 | 36970 ft | 539 kts | 112° |
| 2026-05-05 01:31 | 24.15296 | 42.49638 | 36968 ft | 538 kts | 112° |
| 2026-05-05 01:32 | 24.13192 | 42.57501 | 36979 ft | 538 kts | 112° |
| 2026-05-05 01:32 | 24.11084 | 42.65361 | 36970 ft | 538 kts | 112° |
| 2026-05-05 01:33 | 24.08991 | 42.73149 | 36984 ft | 537 kts | 112° |
| 2026-05-05 01:33 | 24.06879 | 42.80993 | 36981 ft | 537 kts | 112° |
| 2026-05-05 01:34 | 24.04765 | 42.88827 | 36982 ft | 537 kts | 112° |
| 2026-05-05 01:34 | 24.02646 | 42.96664 | 36980 ft | 537 kts | 112° |
| 2026-05-05 01:35 | 24.00528 | 43.04494 | 36957 ft | 537 kts | 112° |
| 2026-05-05 01:35 | 23.98407 | 43.12318 | 36965 ft | 536 kts | 112° |
| 2026-05-05 01:36 | 23.96282 | 43.20138 | 36978 ft | 536 kts | 112° |
| 2026-05-05 01:36 | 23.94156 | 43.27944 | 36970 ft | 536 kts | 112° |
| 2026-05-05 01:37 | 23.92025 | 43.35752 | 36959 ft | 536 kts | 112° |
| 2026-05-05 01:37 | 23.89888 | 43.43568 | 36968 ft | 536 kts | 112° |
| 2026-05-05 01:38 | 23.87750 | 43.51367 | 36959 ft | 536 kts | 112° |
| 2026-05-05 01:38 | 23.85606 | 43.59171 | 36952 ft | 536 kts | 112° |
| 2026-05-05 01:39 | 23.83462 | 43.66960 | 36953 ft | 535 kts | 112° |
| 2026-05-05 01:39 | 23.81314 | 43.74748 | 36948 ft | 535 kts | 112° |
| 2026-05-05 01:40 | 23.79166 | 43.82525 | 36940 ft | 535 kts | 112° |
| 2026-05-05 01:40 | 23.77310 | 43.90409 | 36931 ft | 540 kts | 104° |
| 2026-05-05 01:41 | 23.76563 | 43.98596 | 36938 ft | 543 kts | 97° |
| 2026-05-05 01:41 | 23.76033 | 44.06825 | 36924 ft | 543 kts | 97° |
| 2026-05-05 01:42 | 23.75458 | 44.15050 | 36936 ft | 543 kts | 98° |
| 2026-05-05 01:42 | 23.74840 | 44.23270 | 36914 ft | 543 kts | 98° |
| 2026-05-05 01:43 | 23.74208 | 44.31480 | 36912 ft | 543 kts | 98° |
| 2026-05-05 01:43 | 23.73576 | 44.39700 | 36915 ft | 543 kts | 98° |
| 2026-05-05 01:44 | 23.72943 | 44.47914 | 36913 ft | 543 kts | 98° |
| 2026-05-05 01:44 | 23.72307 | 44.56125 | 36912 ft | 543 kts | 98° |
| 2026-05-05 01:45 | 23.71666 | 44.64327 | 36902 ft | 542 kts | 98° |
| 2026-05-05 01:45 | 23.71026 | 44.72459 | 36904 ft | 541 kts | 98° |
| 2026-05-05 01:46 | 23.70379 | 44.80631 | 36899 ft | 541 kts | 98° |
| 2026-05-05 01:46 | 23.69728 | 44.88799 | 36904 ft | 540 kts | 98° |
| 2026-05-05 01:47 | 23.69070 | 44.96963 | 36909 ft | 540 kts | 98° |
| 2026-05-05 01:47 | 23.68406 | 45.05132 | 36887 ft | 540 kts | 98° |
| 2026-05-05 01:48 | 23.67742 | 45.13284 | 36892 ft | 540 kts | 98° |
| 2026-05-05 01:48 | 23.67072 | 45.21440 | 36890 ft | 539 kts | 98° |
| 2026-05-05 01:49 | 23.66400 | 45.29591 | 36883 ft | 539 kts | 98° |
| 2026-05-05 01:49 | 23.65726 | 45.37730 | 36882 ft | 539 kts | 98° |
| 2026-05-05 01:50 | 23.65049 | 45.45871 | 36877 ft | 539 kts | 98° |
| 2026-05-05 01:50 | 23.64366 | 45.54014 | 36866 ft | 539 kts | 98° |
| 2026-05-05 01:51 | 23.63682 | 45.62139 | 36861 ft | 538 kts | 98° |
| 2026-05-05 01:51 | 23.62993 | 45.70255 | 36862 ft | 536 kts | 98° |
| 2026-05-05 01:52 | 23.62304 | 45.78342 | 36861 ft | 535 kts | 98° |
| 2026-05-05 01:52 | 23.61729 | 45.85055 | 36865 ft | 535 kts | 98° |
| 2026-05-05 01:53 | 23.61034 | 45.93130 | 36867 ft | 534 kts | 98° |
| 2026-05-05 01:53 | 23.60335 | 46.01196 | 36870 ft | 534 kts | 98° |
| 2026-05-05 01:54 | 23.59631 | 46.09262 | 36880 ft | 535 kts | 98° |
| 2026-05-05 01:54 | 23.58923 | 46.17335 | 36878 ft | 535 kts | 98° |
| 2026-05-05 01:55 | 23.58211 | 46.25398 | 36885 ft | 535 kts | 98° |
| 2026-05-05 01:55 | 23.57496 | 46.33470 | 36887 ft | 535 kts | 98° |
| 2026-05-05 01:56 | 23.56777 | 46.41531 | 36886 ft | 534 kts | 98° |
| 2026-05-05 01:56 | 23.56055 | 46.49578 | 36892 ft | 533 kts | 98° |
| 2026-05-05 01:57 | 23.55329 | 46.57571 | 36895 ft | 533 kts | 98° |
| 2026-05-05 01:57 | 23.54587 | 46.65591 | 36893 ft | 533 kts | 98° |
| 2026-05-05 01:58 | 23.53847 | 46.73601 | 36894 ft | 533 kts | 98° |
| 2026-05-05 01:58 | 23.53099 | 46.81620 | 36884 ft | 533 kts | 98° |
| 2026-05-05 01:59 | 23.52347 | 46.89648 | 36888 ft | 533 kts | 98° |
| 2026-05-05 01:59 | 23.51593 | 46.97670 | 36899 ft | 533 kts | 98° |
| 2026-05-05 02:00 | 23.50832 | 47.05709 | 36876 ft | 534 kts | 98° |
| 2026-05-05 02:00 | 23.50066 | 47.13758 | 36870 ft | 534 kts | 98° |
| 2026-05-05 02:01 | 23.49296 | 47.21805 | 36878 ft | 534 kts | 98° |
| 2026-05-05 02:01 | 23.48522 | 47.29848 | 36866 ft | 534 kts | 98° |
| 2026-05-05 02:02 | 23.47745 | 47.37893 | 36864 ft | 534 kts | 98° |
| 2026-05-05 02:02 | 23.46964 | 47.45930 | 36863 ft | 533 kts | 98° |
| 2026-05-05 02:03 | 23.46179 | 47.53961 | 36859 ft | 533 kts | 98° |
| 2026-05-05 02:03 | 23.45397 | 47.61988 | 36864 ft | 533 kts | 98° |
| 2026-05-05 02:04 | 23.44614 | 47.70004 | 36852 ft | 533 kts | 98° |
| 2026-05-05 02:04 | 23.43827 | 47.78024 | 36856 ft | 532 kts | 98° |
| 2026-05-05 02:05 | 23.43037 | 47.86025 | 36842 ft | 531 kts | 98° |
| 2026-05-05 02:05 | 23.42243 | 47.94019 | 36840 ft | 531 kts | 98° |
| 2026-05-05 02:06 | 23.41445 | 48.02003 | 36839 ft | 531 kts | 98° |
| 2026-05-05 02:06 | 23.40643 | 48.09998 | 36831 ft | 531 kts | 98° |
| 2026-05-05 02:07 | 23.39842 | 48.17941 | 36818 ft | 532 kts | 98° |
| 2026-05-05 02:07 | 23.39030 | 48.25949 | 36804 ft | 532 kts | 98° |
| 2026-05-05 02:08 | 23.38225 | 48.33947 | 36813 ft | 532 kts | 97° |
| 2026-05-05 02:08 | 23.37812 | 48.41994 | 36815 ft | 532 kts | 94° |
| 2026-05-05 02:09 | 23.37539 | 48.50047 | 36804 ft | 532 kts | 94° |
| 2026-05-05 02:09 | 23.37244 | 48.58098 | 36803 ft | 532 kts | 94° |
| 2026-05-05 02:10 | 23.36918 | 48.66139 | 36799 ft | 532 kts | 94° |
| 2026-05-05 02:10 | 23.36581 | 48.74175 | 36805 ft | 531 kts | 94° |
| 2026-05-05 02:11 | 23.36243 | 48.82210 | 36803 ft | 531 kts | 94° |
| 2026-05-05 02:11 | 23.35902 | 48.90237 | 36792 ft | 531 kts | 94° |
| 2026-05-05 02:12 | 23.35388 | 49.02205 | 36797 ft | 530 kts | 94° |
| 2026-05-05 02:13 | 23.34773 | 49.10173 | 36799 ft | 527 kts | 101° |
| 2026-05-05 02:13 | 23.33625 | 49.18038 | 36797 ft | 526 kts | 102° |
| 2026-05-05 02:14 | 23.32434 | 49.25904 | 36796 ft | 527 kts | 102° |
| 2026-05-05 02:14 | 23.31273 | 49.33770 | 36795 ft | 527 kts | 101° |
| 2026-05-05 02:15 | 23.30131 | 49.41650 | 36801 ft | 528 kts | 101° |
| 2026-05-05 02:15 | 23.28990 | 49.49531 | 36802 ft | 527 kts | 101° |
| 2026-05-05 02:16 | 23.27843 | 49.57409 | 36789 ft | 527 kts | 101° |
| 2026-05-05 02:16 | 23.26691 | 49.65278 | 36791 ft | 527 kts | 101° |
| 2026-05-05 02:17 | 23.25536 | 49.73137 | 36803 ft | 526 kts | 101° |
| 2026-05-05 02:17 | 23.24377 | 49.80993 | 36795 ft | 526 kts | 102° |
| 2026-05-05 02:18 | 23.23215 | 49.88846 | 36792 ft | 526 kts | 102° |
| 2026-05-05 02:18 | 23.22048 | 49.96703 | 36791 ft | 526 kts | 102° |
| 2026-05-05 02:19 | 23.20878 | 50.04554 | 36797 ft | 526 kts | 102° |
| 2026-05-05 02:19 | 23.19705 | 50.12398 | 36795 ft | 526 kts | 102° |
| 2026-05-05 02:20 | 23.18529 | 50.20233 | 36794 ft | 525 kts | 102° |
| 2026-05-05 02:20 | 23.17350 | 50.28067 | 36797 ft | 525 kts | 102° |
| 2026-05-05 02:21 | 23.16166 | 50.35898 | 36799 ft | 525 kts | 102° |
| 2026-05-05 02:21 | 23.14980 | 50.43720 | 36799 ft | 525 kts | 102° |
| 2026-05-05 02:22 | 23.13798 | 50.51490 | 36806 ft | 525 kts | 102° |
| 2026-05-05 02:22 | 23.12602 | 50.59318 | 36799 ft | 525 kts | 102° |
| 2026-05-05 02:23 | 23.11405 | 50.67135 | 36799 ft | 525 kts | 102° |
| 2026-05-05 02:23 | 23.10204 | 50.74950 | 36798 ft | 525 kts | 102° |
| 2026-05-05 02:24 | 23.08999 | 50.82758 | 36795 ft | 525 kts | 102° |
| 2026-05-05 02:24 | 23.07789 | 50.90576 | 36796 ft | 525 kts | 102° |
| 2026-05-05 02:25 | 23.06576 | 50.98390 | 36794 ft | 525 kts | 102° |
| 2026-05-05 02:25 | 23.05359 | 51.06205 | 36800 ft | 525 kts | 102° |
| 2026-05-05 02:26 | 23.04137 | 51.14023 | 36796 ft | 525 kts | 102° |
| 2026-05-05 02:26 | 23.02913 | 51.21827 | 36796 ft | 524 kts | 102° |
| 2026-05-05 02:27 | 23.01696 | 51.29560 | 36793 ft | 523 kts | 102° |
| 2026-05-05 02:27 | 23.00467 | 51.37345 | 36795 ft | 523 kts | 102° |
| 2026-05-05 02:28 | 22.99236 | 51.45116 | 36799 ft | 523 kts | 102° |
| 2026-05-05 02:28 | 22.98001 | 51.52890 | 36800 ft | 523 kts | 102° |
| 2026-05-05 02:29 | 22.96761 | 51.60666 | 36794 ft | 523 kts | 102° |
| 2026-05-05 02:29 | 22.95519 | 51.68433 | 36795 ft | 523 kts | 102° |
| 2026-05-05 02:30 | 22.94272 | 51.76206 | 36797 ft | 523 kts | 102° |
| 2026-05-05 02:30 | 22.93022 | 51.83974 | 36805 ft | 523 kts | 102° |
| 2026-05-05 02:31 | 22.91766 | 51.91750 | 36801 ft | 523 kts | 102° |
| 2026-05-05 02:31 | 22.90506 | 51.99528 | 36793 ft | 524 kts | 102° |
| 2026-05-05 02:32 | 22.89242 | 52.07304 | 36793 ft | 524 kts | 102° |
| 2026-05-05 02:32 | 22.87974 | 52.15086 | 36796 ft | 524 kts | 102° |
| 2026-05-05 02:33 | 22.86701 | 52.22870 | 36800 ft | 524 kts | 102° |
| 2026-05-05 02:33 | 22.85426 | 52.30644 | 36797 ft | 524 kts | 102° |
| 2026-05-05 02:34 | 22.84148 | 52.38412 | 36796 ft | 523 kts | 102° |
| 2026-05-05 02:34 | 22.82869 | 52.46166 | 36796 ft | 522 kts | 102° |
| 2026-05-05 02:35 | 22.82158 | 52.53950 | 36797 ft | 524 kts | 93° |
| 2026-05-05 02:35 | 22.82007 | 52.61837 | 36798 ft | 523 kts | 92° |
| 2026-05-05 02:36 | 22.81865 | 52.69721 | 36797 ft | 523 kts | 92° |
| 2026-05-05 02:36 | 22.81678 | 52.77604 | 36799 ft | 523 kts | 93° |
| 2026-05-05 02:37 | 22.81467 | 52.85473 | 36795 ft | 523 kts | 93° |
| 2026-05-05 02:37 | 22.81249 | 52.93362 | 36798 ft | 524 kts | 93° |
| 2026-05-05 02:38 | 22.81030 | 53.01252 | 36786 ft | 524 kts | 93° |
| 2026-05-05 02:38 | 22.80810 | 53.09131 | 36794 ft | 523 kts | 93° |
| 2026-05-05 02:39 | 22.80585 | 53.17007 | 36790 ft | 522 kts | 93° |
| 2026-05-05 02:39 | 22.80357 | 53.24873 | 36792 ft | 522 kts | 93° |
| 2026-05-05 02:40 | 22.80125 | 53.32727 | 36792 ft | 522 kts | 93° |
| 2026-05-05 02:40 | 22.79890 | 53.40586 | 36790 ft | 522 kts | 93° |
| 2026-05-05 02:41 | 22.79649 | 53.48449 | 36790 ft | 522 kts | 93° |
| 2026-05-05 02:41 | 22.79406 | 53.56314 | 36792 ft | 522 kts | 93° |
| 2026-05-05 02:42 | 22.79201 | 53.62851 | 36789 ft | 522 kts | 93° |
| 2026-05-05 02:42 | 22.78950 | 53.70717 | 36788 ft | 523 kts | 93° |
| 2026-05-05 02:43 | 22.78695 | 53.78590 | 36786 ft | 523 kts | 93° |
| 2026-05-05 02:43 | 22.78395 | 53.87736 | 36784 ft | 523 kts | 93° |
| 2026-05-05 02:44 | 22.78175 | 53.94321 | 36794 ft | 522 kts | 92° |
| 2026-05-05 02:44 | 22.78531 | 54.02172 | 36791 ft | 522 kts | 82° |
| 2026-05-05 02:45 | 22.79991 | 54.09805 | 36800 ft | 521 kts | 77° |
| 2026-05-05 02:45 | 22.81630 | 54.17512 | 36791 ft | 521 kts | 77° |
| 2026-05-05 02:46 | 22.83205 | 54.25116 | 36784 ft | 521 kts | 77° |
| 2026-05-05 02:46 | 22.84757 | 54.32785 | 36790 ft | 521 kts | 77° |
| 2026-05-05 02:47 | 22.86298 | 54.40460 | 36790 ft | 521 kts | 77° |
| 2026-05-05 02:47 | 22.87837 | 54.48133 | 36793 ft | 521 kts | 77° |
| 2026-05-05 02:48 | 22.89374 | 54.55806 | 36790 ft | 521 kts | 77° |
| 2026-05-05 02:48 | 22.90909 | 54.63487 | 36791 ft | 521 kts | 77° |
| 2026-05-05 02:49 | 22.92441 | 54.71170 | 36792 ft | 521 kts | 77° |
| 2026-05-05 02:49 | 22.93969 | 54.78858 | 36788 ft | 521 kts | 77° |
| 2026-05-05 02:50 | 22.95494 | 54.86547 | 36793 ft | 522 kts | 77° |
| 2026-05-05 02:50 | 22.97016 | 54.94244 | 36790 ft | 522 kts | 77° |
| 2026-05-05 02:51 | 22.98535 | 55.01946 | 36785 ft | 522 kts | 77° |
| 2026-05-05 02:51 | 23.00050 | 55.09649 | 36787 ft | 522 kts | 77° |
| 2026-05-05 02:52 | 23.01675 | 55.17314 | 36778 ft | 518 kts | 68° |
| 2026-05-05 02:52 | 23.03323 | 55.20761 | 36804 ft | 513 kts | 51° |
| 2026-05-05 02:52 | 23.05748 | 55.23562 | 36801 ft | 508 kts | 36° |
| 2026-05-05 02:52 | 23.08649 | 55.25713 | 36796 ft | 504 kts | 24° |
| 2026-05-05 02:53 | 23.11876 | 55.27082 | 36790 ft | 494 kts | 11° |
| 2026-05-05 02:53 | 23.18564 | 55.28883 | 36801 ft | 498 kts | 10° |
| 2026-05-05 02:54 | 23.25305 | 55.30766 | 36802 ft | 502 kts | 11° |
| 2026-05-05 02:54 | 23.32073 | 55.32744 | 36797 ft | 505 kts | 11° |
| 2026-05-05 02:55 | 23.38858 | 55.34747 | 36791 ft | 506 kts | 11° |
| 2026-05-05 02:55 | 23.45646 | 55.36747 | 36796 ft | 505 kts | 11° |
| 2026-05-05 02:56 | 23.52437 | 55.38746 | 36794 ft | 505 kts | 11° |
| 2026-05-05 02:56 | 23.59202 | 55.40752 | 36791 ft | 504 kts | 11° |
| 2026-05-05 02:57 | 23.65966 | 55.42767 | 36794 ft | 503 kts | 11° |
| 2026-05-05 02:57 | 23.72719 | 55.44778 | 36804 ft | 502 kts | 11° |
| 2026-05-05 02:57 | 23.76107 | 55.45786 | 36257 ft | 511 kts | 11° |
| 2026-05-05 02:58 | 23.79547 | 55.46810 | 35545 ft | 512 kts | 11° |
| 2026-05-05 02:58 | 23.82936 | 55.47822 | 34760 ft | 512 kts | 11° |
| 2026-05-05 02:58 | 23.86377 | 55.48850 | 33909 ft | 513 kts | 11° |
| 2026-05-05 02:58 | 23.89821 | 55.49874 | 32937 ft | 513 kts | 11° |
| 2026-05-05 02:59 | 23.93269 | 55.50898 | 32015 ft | 513 kts | 11° |
| 2026-05-05 02:59 | 23.96730 | 55.51991 | 31391 ft | 509 kts | 15° |
| 2026-05-05 02:59 | 23.99936 | 55.53486 | 30785 ft | 508 kts | 24° |
| 2026-05-05 02:59 | 24.02982 | 55.55428 | 30195 ft | 506 kts | 30° |
| 2026-05-05 03:00 | 24.05790 | 55.57727 | 29549 ft | 505 kts | 38° |
| 2026-05-05 03:00 | 24.08378 | 55.60303 | 28928 ft | 500 kts | 40° |
| 2026-05-05 03:00 | 24.10912 | 55.62881 | 28324 ft | 494 kts | 40° |
| 2026-05-05 03:00 | 24.13414 | 55.65423 | 27727 ft | 489 kts | 40° |
| 2026-05-05 03:01 | 24.15902 | 55.67929 | 27156 ft | 483 kts | 40° |
| 2026-05-05 03:01 | 24.18366 | 55.70390 | 26593 ft | 478 kts | 40° |
| 2026-05-05 03:01 | 24.20819 | 55.72827 | 26025 ft | 473 kts | 40° |
| 2026-05-05 03:01 | 24.23243 | 55.75230 | 25482 ft | 468 kts | 40° |
| 2026-05-05 03:02 | 24.25650 | 55.77616 | 24919 ft | 465 kts | 40° |
| 2026-05-05 03:02 | 24.28036 | 55.79984 | 24380 ft | 461 kts | 40° |
| 2026-05-05 03:02 | 24.30405 | 55.82337 | 23825 ft | 458 kts | 41° |
| 2026-05-05 03:02 | 24.32755 | 55.84674 | 23248 ft | 454 kts | 41° |
| 2026-05-05 03:03 | 24.35084 | 55.86992 | 22668 ft | 451 kts | 41° |
| 2026-05-05 03:03 | 24.37392 | 55.89290 | 22087 ft | 446 kts | 41° |
| 2026-05-05 03:03 | 24.39676 | 55.91567 | 21560 ft | 441 kts | 41° |
| 2026-05-05 03:03 | 24.41931 | 55.93821 | 21034 ft | 436 kts | 41° |
| 2026-05-05 03:04 | 24.44161 | 55.96051 | 20522 ft | 432 kts | 41° |
| 2026-05-05 03:04 | 24.46373 | 55.98263 | 20015 ft | 428 kts | 41° |
| 2026-05-05 03:04 | 24.48562 | 56.00453 | 19508 ft | 424 kts | 41° |
| 2026-05-05 03:04 | 24.50735 | 56.02628 | 18992 ft | 421 kts | 41° |
| 2026-05-05 03:05 | 24.52889 | 56.04785 | 18486 ft | 418 kts | 41° |
| 2026-05-05 03:05 | 24.55035 | 56.06933 | 17960 ft | 415 kts | 40° |
| 2026-05-05 03:05 | 24.57163 | 56.09060 | 17403 ft | 411 kts | 40° |
| 2026-05-05 03:05 | 24.59409 | 56.10944 | 16881 ft | 403 kts | 29° |
| 2026-05-05 03:06 | 24.61914 | 56.12266 | 16372 ft | 397 kts | 18° |
| 2026-05-05 03:06 | 24.64552 | 56.13085 | 15868 ft | 391 kts | 8° |
| 2026-05-05 03:06 | 24.67228 | 56.13530 | 15384 ft | 388 kts | 6° |
| 2026-05-05 03:06 | 24.69886 | 56.13971 | 14883 ft | 385 kts | 7° |
| 2026-05-05 03:07 | 24.72522 | 56.14438 | 14389 ft | 383 kts | 7° |
| 2026-05-05 03:07 | 24.75138 | 56.14916 | 13876 ft | 380 kts | 8° |
| 2026-05-05 03:07 | 24.77736 | 56.15244 | 13371 ft | 372 kts | 359° |
| 2026-05-05 03:07 | 24.80293 | 56.14955 | 12904 ft | 367 kts | 347° |
| 2026-05-05 03:08 | 24.82683 | 56.14156 | 12736 ft | 352 kts | 336° |
| 2026-05-05 03:08 | 24.84868 | 56.13053 | 12581 ft | 340 kts | 334° |
| 2026-05-05 03:08 | 24.86975 | 56.11971 | 12456 ft | 328 kts | 334° |
| 2026-05-05 03:08 | 24.89003 | 56.10943 | 12444 ft | 314 kts | 334° |
| 2026-05-05 03:09 | 24.90953 | 56.09965 | 12386 ft | 302 kts | 335° |
| 2026-05-05 03:09 | 24.92834 | 56.09027 | 12289 ft | 292 kts | 335° |
| 2026-05-05 03:09 | 24.94654 | 56.08122 | 12164 ft | 282 kts | 335° |
| 2026-05-05 03:09 | 24.96366 | 56.07176 | 12039 ft | 270 kts | 323° |
| 2026-05-05 03:10 | 24.97600 | 56.05648 | 11678 ft | 270 kts | 297° |
| 2026-05-05 03:10 | 24.98282 | 56.03705 | 11193 ft | 275 kts | 289° |
| 2026-05-05 03:10 | 24.98880 | 56.01692 | 10731 ft | 276 kts | 289° |
| 2026-05-05 03:10 | 24.99474 | 55.99675 | 10226 ft | 273 kts | 289° |
| 2026-05-05 03:11 | 25.00046 | 55.97732 | 10193 ft | 270 kts | 289° |
| 2026-05-05 03:11 | 25.00646 | 55.95704 | 10089 ft | 286 kts | 289° |
| 2026-05-05 03:11 | 25.01270 | 55.93604 | 9760 ft | 297 kts | 289° |
| 2026-05-05 03:11 | 25.01925 | 55.91399 | 9378 ft | 300 kts | 289° |
| 2026-05-05 03:12 | 25.02577 | 55.89208 | 8996 ft | 301 kts | 290° |
| 2026-05-05 03:12 | 25.03219 | 55.87049 | 8623 ft | 301 kts | 290° |
| 2026-05-05 03:12 | 25.03873 | 55.84856 | 8252 ft | 301 kts | 290° |
| 2026-05-05 03:12 | 25.04525 | 55.82666 | 7911 ft | 300 kts | 290° |
| 2026-05-05 03:13 | 25.05175 | 55.80484 | 7591 ft | 298 kts | 290° |
| 2026-05-05 03:13 | 25.05821 | 55.78315 | 7221 ft | 299 kts | 290° |
| 2026-05-05 03:13 | 25.06463 | 55.76156 | 7023 ft | 293 kts | 290° |
| 2026-05-05 03:13 | 25.07090 | 55.74050 | 6813 ft | 287 kts | 290° |
| 2026-05-05 03:14 | 25.07708 | 55.71971 | 6671 ft | 279 kts | 290° |
| 2026-05-05 03:14 | 25.08300 | 55.69980 | 6596 ft | 269 kts | 290° |
| 2026-05-05 03:14 | 25.08872 | 55.68057 | 6505 ft | 259 kts | 290° |
| 2026-05-05 03:14 | 25.09420 | 55.66211 | 6421 ft | 248 kts | 290° |
| 2026-05-05 03:15 | 25.09944 | 55.64441 | 6341 ft | 237 kts | 290° |
| 2026-05-05 03:15 | 25.10539 | 55.62796 | 6176 ft | 225 kts | 302° |
| 2026-05-05 03:15 | 25.11348 | 55.61347 | 5947 ft | 219 kts | 305° |
| 2026-05-05 03:15 | 25.12167 | 55.59940 | 5660 ft | 217 kts | 304° |
| 2026-05-05 03:16 | 25.12973 | 55.58532 | 5337 ft | 217 kts | 304° |
| 2026-05-05 03:16 | 25.13769 | 55.57123 | 5025 ft | 216 kts | 304° |
| 2026-05-05 03:16 | 25.14650 | 55.55804 | 4638 ft | 212 kts | 324° |
| 2026-05-05 03:16 | 25.15969 | 55.55149 | 4138 ft | 211 kts | 358° |
| 2026-05-05 03:17 | 25.17393 | 55.55407 | 3711 ft | 211 kts | 29° |
| 2026-05-05 03:17 | 25.18454 | 55.56464 | 3464 ft | 206 kts | 60° |
| 2026-05-05 03:17 | 25.18842 | 55.57985 | 3233 ft | 212 kts | 89° |
| 2026-05-05 03:17 | 25.18484 | 55.59573 | 3003 ft | 219 kts | 118° |
| 2026-05-05 03:18 | 25.17684 | 55.60999 | 2787 ft | 219 kts | 120° |
| 2026-05-05 03:18 | 25.16777 | 55.62339 | 2532 ft | 219 kts | 142° |
| 2026-05-05 03:18 | 25.15354 | 55.62829 | 2334 ft | 217 kts | 185° |
| 2026-05-05 03:18 | 25.14011 | 55.62201 | 2226 ft | 209 kts | 220° |
| 2026-05-05 03:19 | 25.13222 | 55.59427 | 2057 ft | 199 kts | 290° |
| 2026-05-05 03:19 | 25.13740 | 55.58009 | 2048 ft | 203 kts | 295° |
| 2026-05-05 03:19 | 25.14316 | 55.56574 | 2034 ft | 205 kts | 296° |
| 2026-05-05 03:20 | 25.14956 | 55.55164 | 2038 ft | 205 kts | 300° |
| 2026-05-05 03:20 | 25.15675 | 55.53803 | 2031 ft | 204 kts | 303° |
| 2026-05-05 03:20 | 25.16402 | 55.52486 | 2063 ft | 200 kts | 303° |
| 2026-05-05 03:20 | 25.17122 | 55.51183 | 2024 ft | 196 kts | 303° |
| 2026-05-05 03:21 | 25.17829 | 55.49909 | 2022 ft | 195 kts | 303° |
| 2026-05-05 03:21 | 25.18546 | 55.48616 | 1838 ft | 200 kts | 302° |
| 2026-05-05 03:21 | 25.19245 | 55.47353 | 1594 ft | 186 kts | 302° |
| 2026-05-05 03:21 | 25.19892 | 55.46184 | 1348 ft | 170 kts | 302° |
| 2026-05-05 03:22 | 25.20482 | 55.45117 | 1162 ft | 160 kts | 302° |
| 2026-05-05 03:22 | 25.21067 | 55.44063 | 966 ft | 161 kts | 301° |
| 2026-05-05 03:22 | 25.21641 | 55.43025 | 769 ft | 155 kts | 300° |
| 2026-05-05 03:22 | 25.22195 | 55.42023 | 583 ft | 152 kts | 300° |
| 2026-05-05 03:23 | 25.22754 | 55.41018 | 404 ft | 154 kts | 299° |
| 2026-05-05 03:23 | 25.23299 | 55.40013 | 181 ft | 152 kts | 299° |
| 2026-05-05 03:23 | 25.23849 | 55.39023 | 43 ft | 147 kts | 299° |
| 2026-05-05 03:23 | 25.24326 | 55.38156 | 32 ft | 117 kts | 301° |
| 2026-05-05 03:24 | 25.24675 | 55.37532 | 27 ft | 73 kts | 301° |
| 2026-05-05 03:24 | 25.24862 | 55.37195 | 29 ft | 36 kts | 301° |
| 2026-05-05 03:24 | 25.24980 | 55.36972 | 30 ft | 31 kts | 294° |
| 2026-05-05 03:24 | 25.25020 | 55.36757 | 27 ft | 18 kts | 271° |
| 2026-05-05 03:25 | 25.25023 | 55.36642 | 26 ft | 15 kts | 271° |
| 2026-05-05 03:25 | 25.24965 | 55.36572 | 26 ft | 15 kts | 165° |
| 2026-05-05 03:25 | 25.24897 | 55.36660 | 26 ft | 16 kts | 117° |
| 2026-05-05 03:25 | 25.24864 | 55.36776 | 27 ft | 16 kts | 100° |
| 2026-05-05 03:26 | 25.24812 | 55.36869 | 27 ft | 16 kts | 169° |
| 2026-05-05 03:26 | 25.24724 | 55.36825 | 26 ft | 10 kts | 212° |
| 2026-05-05 03:26 | 25.24664 | 55.36783 | 30 ft | 10 kts | 212° |
| 2026-05-05 03:26 | 25.24601 | 55.36742 | 29 ft | 11 kts | 211° |
| 2026-05-05 03:27 | 25.24536 | 55.36698 | 29 ft | 11 kts | 211° |
| 2026-05-05 03:27 | 25.24476 | 55.36641 | 32 ft | 12 kts | 231° |
| 2026-05-05 03:27 | 25.24447 | 55.36559 | 30 ft | 12 kts | 267° |
| 2026-05-05 03:27 | 25.24467 | 55.36472 | 32 ft | 12 kts | 301° |
| 2026-05-05 03:28 | 25.24508 | 55.36400 | 29 ft | 12 kts | 302° |
| 2026-05-05 03:28 | 25.24544 | 55.36337 | 29 ft | 9 kts | 302° |
| 2026-05-05 03:28 | 25.24566 | 55.36296 | 29 ft | 10 kts | 301° |
| 2026-05-05 03:28 | 25.24603 | 55.36231 | 29 ft | 10 kts | 301° |
| 2026-05-05 03:29 | 25.24652 | 55.36194 | 30 ft | 7 kts | 21° |
| 2026-05-05 03:29 | 25.24693 | 55.36221 | 30 ft | 6 kts | 32° |
| 2026-05-05 03:29 | 25.24705 | 55.36229 | 29 ft | 2 kts | 31° |
| 2026-05-05 03:29 | 25.24707 | 55.36231 | 30 ft | 0 kts | 31° |